<?xml version="1.0" encoding="UTF-8" standalone="no" ?>
<gpx xmlns="http://www.topografix.com/GPX/1/1" xmlns:xsi="http://www.w3.org/2001/XMLSchema-instance" xsi:schemaLocation="http://www.topografix.com/GPX/1/1 http://www.topografix.com/GPX/1/1/gpx.xsd" version="1.1" creator="VisuGPX - https://www.visugpx.com">
  <metadata>
    <name>VTT Malpasset - Lac de Lavellan</name>
    <desc><![CDATA[Sortie de 32km 650m de dénivellé]]></desc>
  </metadata>
  <trk>
    <name><![CDATA[Esteret - Avelan - Corrigé MP2]]></name>
    <trkseg>
      <trkpt lat="43.54956" lon="6.78884">
        <ele>125.1</ele>
        <time>2013-05-08T10:15:21Z</time>
      </trkpt>
      <trkpt lat="43.54971" lon="6.78842">
        <ele>123.7</ele>
        <time>2013-05-08T10:15:30Z</time>
      </trkpt>
      <trkpt lat="43.54986" lon="6.78784">
        <ele>121.3</ele>
        <time>2013-05-08T10:15:38Z</time>
      </trkpt>
      <trkpt lat="43.5501" lon="6.78745">
        <ele>119.8</ele>
        <time>2013-05-08T10:15:44Z</time>
      </trkpt>
      <trkpt lat="43.55037" lon="6.78707">
        <ele>118.9</ele>
        <time>2013-05-08T10:15:50Z</time>
      </trkpt>
      <trkpt lat="43.55059" lon="6.78662">
        <ele>117.4</ele>
        <time>2013-05-08T10:15:56Z</time>
      </trkpt>
      <trkpt lat="43.55068" lon="6.78608">
        <ele>116.5</ele>
        <time>2013-05-08T10:16:03Z</time>
      </trkpt>
      <trkpt lat="43.55075" lon="6.78575">
        <ele>115.5</ele>
        <time>2013-05-08T10:16:07Z</time>
      </trkpt>
      <trkpt lat="43.5509" lon="6.78528">
        <ele>113.6</ele>
        <time>2013-05-08T10:16:13Z</time>
      </trkpt>
      <trkpt lat="43.55107" lon="6.78481">
        <ele>113.1</ele>
        <time>2013-05-08T10:16:19Z</time>
      </trkpt>
      <trkpt lat="43.55131" lon="6.78434">
        <ele>109.7</ele>
        <time>2013-05-08T10:16:25Z</time>
      </trkpt>
      <trkpt lat="43.55141" lon="6.78403">
        <ele>106.4</ele>
        <time>2013-05-08T10:16:28Z</time>
      </trkpt>
      <trkpt lat="43.5515" lon="6.78367">
        <ele>102</ele>
        <time>2013-05-08T10:16:31Z</time>
      </trkpt>
      <trkpt lat="43.55162" lon="6.78315">
        <ele>98.7</ele>
        <time>2013-05-08T10:16:35Z</time>
      </trkpt>
      <trkpt lat="43.55171" lon="6.78284">
        <ele>100.6</ele>
        <time>2013-05-08T10:16:38Z</time>
      </trkpt>
      <trkpt lat="43.55179" lon="6.7822">
        <ele>104.4</ele>
        <time>2013-05-08T10:17:00Z</time>
      </trkpt>
      <trkpt lat="43.55181" lon="6.78204">
        <ele>106.4</ele>
        <time>2013-05-08T10:17:27Z</time>
      </trkpt>
      <trkpt lat="43.55182" lon="6.78203">
        <ele>115.5</ele>
        <time>2013-05-08T10:15:21Z</time>
      </trkpt>
      <trkpt lat="43.55184" lon="6.78128">
        <ele>120.3</ele>
        <time>2013-05-08T10:16:12Z</time>
      </trkpt>
      <trkpt lat="43.55185" lon="6.78076">
        <ele>123.7</ele>
        <time>2013-05-08T10:16:30Z</time>
      </trkpt>
      <trkpt lat="43.55203" lon="6.78005">
        <ele>128</ele>
        <time>2013-05-08T10:17:02Z</time>
      </trkpt>
      <trkpt lat="43.55225" lon="6.77964">
        <ele>130.4</ele>
        <time>2013-05-08T10:17:24Z</time>
      </trkpt>
      <trkpt lat="43.55252" lon="6.77925">
        <ele>132.3</ele>
        <time>2013-05-08T10:17:40Z</time>
      </trkpt>
      <trkpt lat="43.55259" lon="6.77847">
        <ele>133.8</ele>
        <time>2013-05-08T10:18:52Z</time>
      </trkpt>
      <trkpt lat="43.55269" lon="6.77789">
        <ele>135.2</ele>
        <time>2013-05-08T10:19:04Z</time>
      </trkpt>
      <trkpt lat="43.55289" lon="6.77739">
        <ele>137.1</ele>
        <time>2013-05-08T10:19:16Z</time>
      </trkpt>
      <trkpt lat="43.55326" lon="6.77722">
        <ele>134.7</ele>
        <time>2013-05-08T10:19:26Z</time>
      </trkpt>
      <trkpt lat="43.55363" lon="6.77745">
        <ele>132.8</ele>
        <time>2013-05-08T10:19:35Z</time>
      </trkpt>
      <trkpt lat="43.55385" lon="6.77754">
        <ele>130.4</ele>
        <time>2013-05-08T10:19:39Z</time>
      </trkpt>
      <trkpt lat="43.55427" lon="6.77753">
        <ele>129.4</ele>
        <time>2013-05-08T10:19:46Z</time>
      </trkpt>
      <trkpt lat="43.55461" lon="6.77776">
        <ele>126.6</ele>
        <time>2013-05-08T10:19:55Z</time>
      </trkpt>
      <trkpt lat="43.555" lon="6.77788">
        <ele>124.1</ele>
        <time>2013-05-08T10:20:03Z</time>
      </trkpt>
      <trkpt lat="43.55521" lon="6.77747">
        <ele>123.2</ele>
        <time>2013-05-08T10:20:11Z</time>
      </trkpt>
      <trkpt lat="43.55506" lon="6.77701">
        <ele>123.7</ele>
        <time>2013-05-08T10:21:54Z</time>
      </trkpt>
      <trkpt lat="43.55469" lon="6.77683">
        <ele>123.7</ele>
        <time>2013-05-08T10:22:05Z</time>
      </trkpt>
      <trkpt lat="43.55432" lon="6.77661">
        <ele>123.7</ele>
        <time>2013-05-08T10:22:15Z</time>
      </trkpt>
      <trkpt lat="43.55405" lon="6.77612">
        <ele>122.2</ele>
        <time>2013-05-08T10:22:25Z</time>
      </trkpt>
      <trkpt lat="43.55382" lon="6.77564">
        <ele>121.3</ele>
        <time>2013-05-08T10:22:33Z</time>
      </trkpt>
      <trkpt lat="43.55357" lon="6.77515">
        <ele>119.3</ele>
        <time>2013-05-08T10:22:41Z</time>
      </trkpt>
      <trkpt lat="43.5532" lon="6.77511">
        <ele>115.5</ele>
        <time>2013-05-08T10:22:47Z</time>
      </trkpt>
      <trkpt lat="43.55281" lon="6.77495">
        <ele>112.6</ele>
        <time>2013-05-08T10:22:53Z</time>
      </trkpt>
      <trkpt lat="43.55265" lon="6.77471">
        <ele>110.2</ele>
        <time>2013-05-08T10:22:56Z</time>
      </trkpt>
      <trkpt lat="43.55248" lon="6.77419">
        <ele>110.7</ele>
        <time>2013-05-08T10:23:03Z</time>
      </trkpt>
      <trkpt lat="43.55217" lon="6.77389">
        <ele>111.7</ele>
        <time>2013-05-08T10:23:12Z</time>
      </trkpt>
      <trkpt lat="43.55182" lon="6.77357">
        <ele>110.2</ele>
        <time>2013-05-08T10:23:21Z</time>
      </trkpt>
      <trkpt lat="43.5515" lon="6.77321">
        <ele>110.2</ele>
        <time>2013-05-08T10:23:29Z</time>
      </trkpt>
      <trkpt lat="43.5512" lon="6.7729">
        <ele>108.8</ele>
        <time>2013-05-08T10:23:37Z</time>
      </trkpt>
      <trkpt lat="43.55086" lon="6.77264">
        <ele>108.3</ele>
        <time>2013-05-08T10:23:45Z</time>
      </trkpt>
      <trkpt lat="43.55059" lon="6.77225">
        <ele>110.2</ele>
        <time>2013-05-08T10:23:54Z</time>
      </trkpt>
      <trkpt lat="43.55051" lon="6.77173">
        <ele>111.7</ele>
        <time>2013-05-08T10:24:04Z</time>
      </trkpt>
      <trkpt lat="43.55065" lon="6.77122">
        <ele>113.6</ele>
        <time>2013-05-08T10:24:15Z</time>
      </trkpt>
      <trkpt lat="43.55084" lon="6.77081">
        <ele>115</ele>
        <time>2013-05-08T10:24:25Z</time>
      </trkpt>
      <trkpt lat="43.5505" lon="6.77063">
        <ele>116.9</ele>
        <time>2013-05-08T10:24:36Z</time>
      </trkpt>
      <trkpt lat="43.55008" lon="6.7703">
        <ele>117.4</ele>
        <time>2013-05-08T10:24:52Z</time>
      </trkpt>
      <trkpt lat="43.54975" lon="6.77006">
        <ele>116.5</ele>
        <time>2013-05-08T10:25:01Z</time>
      </trkpt>
      <trkpt lat="43.54943" lon="6.76981">
        <ele>115.5</ele>
        <time>2013-05-08T10:25:09Z</time>
      </trkpt>
      <trkpt lat="43.54919" lon="6.76933">
        <ele>113.6</ele>
        <time>2013-05-08T10:25:21Z</time>
      </trkpt>
      <trkpt lat="43.54912" lon="6.76873">
        <ele>109.7</ele>
        <time>2013-05-08T10:25:29Z</time>
      </trkpt>
      <trkpt lat="43.54892" lon="6.76838">
        <ele>109.2</ele>
        <time>2013-05-08T10:26:00Z</time>
      </trkpt>
      <trkpt lat="43.54865" lon="6.76861">
        <ele>107.8</ele>
        <time>2013-05-08T10:26:12Z</time>
      </trkpt>
      <trkpt lat="43.54851" lon="6.76913">
        <ele>106.4</ele>
        <time>2013-05-08T10:26:21Z</time>
      </trkpt>
      <trkpt lat="43.54837" lon="6.76966">
        <ele>105.9</ele>
        <time>2013-05-08T10:26:29Z</time>
      </trkpt>
      <trkpt lat="43.54826" lon="6.77016">
        <ele>105.9</ele>
        <time>2013-05-08T10:26:37Z</time>
      </trkpt>
      <trkpt lat="43.54816" lon="6.77068">
        <ele>106.8</ele>
        <time>2013-05-08T10:26:46Z</time>
      </trkpt>
      <trkpt lat="43.54795" lon="6.77113">
        <ele>106.4</ele>
        <time>2013-05-08T10:26:57Z</time>
      </trkpt>
      <trkpt lat="43.54768" lon="6.77157">
        <ele>106.4</ele>
        <time>2013-05-08T10:27:10Z</time>
      </trkpt>
      <trkpt lat="43.54751" lon="6.77179">
        <ele>105.9</ele>
        <time>2013-05-08T10:27:15Z</time>
      </trkpt>
      <trkpt lat="43.54721" lon="6.77218">
        <ele>105.4</ele>
        <time>2013-05-08T10:27:24Z</time>
      </trkpt>
      <trkpt lat="43.54685" lon="6.77248">
        <ele>104.4</ele>
        <time>2013-05-08T10:27:32Z</time>
      </trkpt>
      <trkpt lat="43.54654" lon="6.77281">
        <ele>104.4</ele>
        <time>2013-05-08T10:27:40Z</time>
      </trkpt>
      <trkpt lat="43.54626" lon="6.77323">
        <ele>104</ele>
        <time>2013-05-08T10:27:48Z</time>
      </trkpt>
      <trkpt lat="43.54601" lon="6.77366">
        <ele>103.5</ele>
        <time>2013-05-08T10:27:56Z</time>
      </trkpt>
      <trkpt lat="43.54577" lon="6.77417">
        <ele>103.5</ele>
        <time>2013-05-08T10:28:06Z</time>
      </trkpt>
      <trkpt lat="43.5454" lon="6.77448">
        <ele>101.6</ele>
        <time>2013-05-08T10:28:14Z</time>
      </trkpt>
      <trkpt lat="43.54523" lon="6.77501">
        <ele>101.1</ele>
        <time>2013-05-08T10:28:22Z</time>
      </trkpt>
      <trkpt lat="43.5449" lon="6.77537">
        <ele>100.1</ele>
        <time>2013-05-08T10:28:30Z</time>
      </trkpt>
      <trkpt lat="43.54469" lon="6.7755">
        <ele>99.2</ele>
        <time>2013-05-08T10:28:34Z</time>
      </trkpt>
      <trkpt lat="43.54431" lon="6.77565">
        <ele>98.7</ele>
        <time>2013-05-08T10:28:41Z</time>
      </trkpt>
      <trkpt lat="43.54409" lon="6.77556">
        <ele>98.2</ele>
        <time>2013-05-08T10:28:45Z</time>
      </trkpt>
      <trkpt lat="43.54368" lon="6.77572">
        <ele>98.2</ele>
        <time>2013-05-08T10:28:53Z</time>
      </trkpt>
      <trkpt lat="43.54336" lon="6.77608">
        <ele>97.7</ele>
        <time>2013-05-08T10:29:01Z</time>
      </trkpt>
      <trkpt lat="43.54298" lon="6.77617">
        <ele>96.7</ele>
        <time>2013-05-08T10:29:08Z</time>
      </trkpt>
      <trkpt lat="43.54261" lon="6.77617">
        <ele>95.3</ele>
        <time>2013-05-08T10:29:14Z</time>
      </trkpt>
      <trkpt lat="43.54224" lon="6.77616">
        <ele>94.3</ele>
        <time>2013-05-08T10:29:20Z</time>
      </trkpt>
      <trkpt lat="43.54188" lon="6.77643">
        <ele>93.9</ele>
        <time>2013-05-08T10:29:27Z</time>
      </trkpt>
      <trkpt lat="43.54166" lon="6.77652">
        <ele>93.4</ele>
        <time>2013-05-08T10:29:31Z</time>
      </trkpt>
      <trkpt lat="43.5413" lon="6.77659">
        <ele>91.9</ele>
        <time>2013-05-08T10:29:37Z</time>
      </trkpt>
      <trkpt lat="43.54092" lon="6.77673">
        <ele>90.5</ele>
        <time>2013-05-08T10:29:43Z</time>
      </trkpt>
      <trkpt lat="43.54054" lon="6.77686">
        <ele>89.1</ele>
        <time>2013-05-08T10:29:49Z</time>
      </trkpt>
      <trkpt lat="43.54015" lon="6.77679">
        <ele>88.6</ele>
        <time>2013-05-08T10:29:55Z</time>
      </trkpt>
      <trkpt lat="43.5398" lon="6.77662">
        <ele>88.1</ele>
        <time>2013-05-08T10:30:01Z</time>
      </trkpt>
      <trkpt lat="43.53957" lon="6.77655">
        <ele>88.6</ele>
        <time>2013-05-08T10:30:05Z</time>
      </trkpt>
      <trkpt lat="43.53935" lon="6.77642">
        <ele>89.1</ele>
        <time>2013-05-08T10:30:09Z</time>
      </trkpt>
      <trkpt lat="43.53899" lon="6.77613">
        <ele>88.6</ele>
        <time>2013-05-08T10:30:16Z</time>
      </trkpt>
      <trkpt lat="43.53878" lon="6.77598">
        <ele>88.6</ele>
        <time>2013-05-08T10:30:20Z</time>
      </trkpt>
      <trkpt lat="43.53845" lon="6.77575">
        <ele>86.7</ele>
        <time>2013-05-08T10:30:26Z</time>
      </trkpt>
      <trkpt lat="43.53809" lon="6.77549">
        <ele>85.2</ele>
        <time>2013-05-08T10:30:32Z</time>
      </trkpt>
      <trkpt lat="43.53774" lon="6.77522">
        <ele>84.3</ele>
        <time>2013-05-08T10:30:38Z</time>
      </trkpt>
      <trkpt lat="43.53738" lon="6.77496">
        <ele>84.3</ele>
        <time>2013-05-08T10:30:44Z</time>
      </trkpt>
      <trkpt lat="43.53704" lon="6.77471">
        <ele>84.3</ele>
        <time>2013-05-08T10:30:50Z</time>
      </trkpt>
      <trkpt lat="43.5367" lon="6.77447">
        <ele>83.3</ele>
        <time>2013-05-08T10:30:56Z</time>
      </trkpt>
      <trkpt lat="43.53636" lon="6.77427">
        <ele>83.8</ele>
        <time>2013-05-08T10:31:02Z</time>
      </trkpt>
      <trkpt lat="43.53596" lon="6.77408">
        <ele>83.3</ele>
        <time>2013-05-08T10:31:09Z</time>
      </trkpt>
      <trkpt lat="43.53575" lon="6.77397">
        <ele>83.8</ele>
        <time>2013-05-08T10:31:13Z</time>
      </trkpt>
      <trkpt lat="43.53553" lon="6.77386">
        <ele>82.8</ele>
        <time>2013-05-08T10:31:17Z</time>
      </trkpt>
      <trkpt lat="43.53531" lon="6.77377">
        <ele>82.8</ele>
        <time>2013-05-08T10:31:21Z</time>
      </trkpt>
      <trkpt lat="43.53497" lon="6.77362">
        <ele>82.3</ele>
        <time>2013-05-08T10:31:27Z</time>
      </trkpt>
      <trkpt lat="43.53461" lon="6.77351">
        <ele>81.8</ele>
        <time>2013-05-08T10:31:33Z</time>
      </trkpt>
      <trkpt lat="43.53422" lon="6.77343">
        <ele>80.4</ele>
        <time>2013-05-08T10:31:39Z</time>
      </trkpt>
      <trkpt lat="43.53383" lon="6.77337">
        <ele>79.4</ele>
        <time>2013-05-08T10:31:45Z</time>
      </trkpt>
      <trkpt lat="43.53347" lon="6.77323">
        <ele>79</ele>
        <time>2013-05-08T10:31:51Z</time>
      </trkpt>
      <trkpt lat="43.53342" lon="6.77318">
        <ele>79.4</ele>
        <time>2013-05-08T10:32:10Z</time>
      </trkpt>
      <trkpt lat="43.5337" lon="6.77357">
        <ele>76.6</ele>
        <time>2013-05-08T10:32:21Z</time>
      </trkpt>
      <trkpt lat="43.5341" lon="6.77384">
        <ele>75.1</ele>
        <time>2013-05-08T10:32:32Z</time>
      </trkpt>
      <trkpt lat="43.53444" lon="6.77409">
        <ele>73.7</ele>
        <time>2013-05-08T10:32:40Z</time>
      </trkpt>
      <trkpt lat="43.53473" lon="6.77441">
        <ele>74.6</ele>
        <time>2013-05-08T10:35:49Z</time>
      </trkpt>
      <trkpt lat="43.53442" lon="6.77469">
        <ele>83.3</ele>
        <time>2013-05-08T10:36:51Z</time>
      </trkpt>
      <trkpt lat="43.5342" lon="6.7751">
        <ele>87.1</ele>
        <time>2013-05-08T10:37:09Z</time>
      </trkpt>
      <trkpt lat="43.53396" lon="6.7755">
        <ele>91.9</ele>
        <time>2013-05-08T10:37:28Z</time>
      </trkpt>
      <trkpt lat="43.53375" lon="6.77591">
        <ele>99.2</ele>
        <time>2013-05-08T10:38:11Z</time>
      </trkpt>
      <trkpt lat="43.53362" lon="6.7764">
        <ele>105.9</ele>
        <time>2013-05-08T10:39:09Z</time>
      </trkpt>
      <trkpt lat="43.53341" lon="6.77681">
        <ele>112.6</ele>
        <time>2013-05-08T10:39:39Z</time>
      </trkpt>
      <trkpt lat="43.53297" lon="6.77726">
        <ele>118.9</ele>
        <time>2013-05-08T10:40:18Z</time>
      </trkpt>
      <trkpt lat="43.53274" lon="6.77763">
        <ele>121.3</ele>
        <time>2013-05-08T10:40:41Z</time>
      </trkpt>
      <trkpt lat="43.5324" lon="6.77799">
        <ele>119.3</ele>
        <time>2013-05-08T10:40:58Z</time>
      </trkpt>
      <trkpt lat="43.53219" lon="6.77845">
        <ele>120.8</ele>
        <time>2013-05-08T10:41:10Z</time>
      </trkpt>
      <trkpt lat="43.53198" lon="6.77889">
        <ele>126.1</ele>
        <time>2013-05-08T10:41:39Z</time>
      </trkpt>
      <trkpt lat="43.53175" lon="6.7793">
        <ele>129</ele>
        <time>2013-05-08T10:41:58Z</time>
      </trkpt>
      <trkpt lat="43.53145" lon="6.77961">
        <ele>129.4</ele>
        <time>2013-05-08T10:42:12Z</time>
      </trkpt>
      <trkpt lat="43.53112" lon="6.7799">
        <ele>129</ele>
        <time>2013-05-08T10:42:24Z</time>
      </trkpt>
      <trkpt lat="43.53087" lon="6.77956">
        <ele>129</ele>
        <time>2013-05-08T10:42:34Z</time>
      </trkpt>
      <trkpt lat="43.53044" lon="6.77945">
        <ele>128.5</ele>
        <time>2013-05-08T10:42:49Z</time>
      </trkpt>
      <trkpt lat="43.5301" lon="6.77933">
        <ele>129.4</ele>
        <time>2013-05-08T10:43:00Z</time>
      </trkpt>
      <trkpt lat="43.52974" lon="6.77914">
        <ele>129.4</ele>
        <time>2013-05-08T10:43:18Z</time>
      </trkpt>
      <trkpt lat="43.52936" lon="6.77899">
        <ele>128.5</ele>
        <time>2013-05-08T10:43:29Z</time>
      </trkpt>
      <trkpt lat="43.52897" lon="6.77891">
        <ele>129.4</ele>
        <time>2013-05-08T10:43:39Z</time>
      </trkpt>
      <trkpt lat="43.52858" lon="6.77888">
        <ele>129.4</ele>
        <time>2013-05-08T10:43:50Z</time>
      </trkpt>
      <trkpt lat="43.5282" lon="6.77879">
        <ele>129.4</ele>
        <time>2013-05-08T10:44:02Z</time>
      </trkpt>
      <trkpt lat="43.52826" lon="6.77844">
        <ele>129</ele>
        <time>2013-05-08T10:44:23Z</time>
      </trkpt>
      <trkpt lat="43.52868" lon="6.77822">
        <ele>128</ele>
        <time>2013-05-08T10:44:35Z</time>
      </trkpt>
      <trkpt lat="43.52916" lon="6.77774">
        <ele>128.5</ele>
        <time>2013-05-08T10:44:48Z</time>
      </trkpt>
      <trkpt lat="43.52925" lon="6.77729">
        <ele>133.8</ele>
        <time>2013-05-08T10:45:05Z</time>
      </trkpt>
      <trkpt lat="43.52907" lon="6.77693">
        <ele>129.4</ele>
        <time>2013-05-08T10:45:22Z</time>
      </trkpt>
      <trkpt lat="43.52868" lon="6.77698">
        <ele>128.5</ele>
        <time>2013-05-08T10:45:32Z</time>
      </trkpt>
      <trkpt lat="43.52832" lon="6.77681">
        <ele>128.5</ele>
        <time>2013-05-08T10:45:42Z</time>
      </trkpt>
      <trkpt lat="43.528" lon="6.77655">
        <ele>129</ele>
        <time>2013-05-08T10:45:52Z</time>
      </trkpt>
      <trkpt lat="43.52745" lon="6.77641">
        <ele>128.5</ele>
        <time>2013-05-08T10:46:16Z</time>
      </trkpt>
      <trkpt lat="43.52704" lon="6.77645">
        <ele>129</ele>
        <time>2013-05-08T10:46:28Z</time>
      </trkpt>
      <trkpt lat="43.52665" lon="6.7765">
        <ele>129</ele>
        <time>2013-05-08T10:46:43Z</time>
      </trkpt>
      <trkpt lat="43.5263" lon="6.77626">
        <ele>129</ele>
        <time>2013-05-08T10:46:54Z</time>
      </trkpt>
      <trkpt lat="43.52598" lon="6.77598">
        <ele>129</ele>
        <time>2013-05-08T10:47:04Z</time>
      </trkpt>
      <trkpt lat="43.52563" lon="6.77595">
        <ele>128.5</ele>
        <time>2013-05-08T10:47:13Z</time>
      </trkpt>
      <trkpt lat="43.52546" lon="6.77648">
        <ele>128.5</ele>
        <time>2013-05-08T10:47:23Z</time>
      </trkpt>
      <trkpt lat="43.52511" lon="6.77669">
        <ele>129.9</ele>
        <time>2013-05-08T10:49:44Z</time>
      </trkpt>
      <trkpt lat="43.5249" lon="6.77623">
        <ele>129</ele>
        <time>2013-05-08T10:49:55Z</time>
      </trkpt>
      <trkpt lat="43.5247" lon="6.77577">
        <ele>128.5</ele>
        <time>2013-05-08T10:50:06Z</time>
      </trkpt>
      <trkpt lat="43.52437" lon="6.77559">
        <ele>128.5</ele>
        <time>2013-05-08T10:50:16Z</time>
      </trkpt>
      <trkpt lat="43.52399" lon="6.77556">
        <ele>128.5</ele>
        <time>2013-05-08T10:50:26Z</time>
      </trkpt>
      <trkpt lat="43.52377" lon="6.7752">
        <ele>129</ele>
        <time>2013-05-08T10:50:36Z</time>
      </trkpt>
      <trkpt lat="43.52387" lon="6.77467">
        <ele>128</ele>
        <time>2013-05-08T10:50:46Z</time>
      </trkpt>
      <trkpt lat="43.52379" lon="6.7741">
        <ele>129</ele>
        <time>2013-05-08T10:51:07Z</time>
      </trkpt>
      <trkpt lat="43.52397" lon="6.77362">
        <ele>126.6</ele>
        <time>2013-05-08T10:51:17Z</time>
      </trkpt>
      <trkpt lat="43.52432" lon="6.77342">
        <ele>126.6</ele>
        <time>2013-05-08T10:51:25Z</time>
      </trkpt>
      <trkpt lat="43.5244" lon="6.77293">
        <ele>126.6</ele>
        <time>2013-05-08T10:51:34Z</time>
      </trkpt>
      <trkpt lat="43.52453" lon="6.77248">
        <ele>126.1</ele>
        <time>2013-05-08T10:51:44Z</time>
      </trkpt>
      <trkpt lat="43.52462" lon="6.77202">
        <ele>126.6</ele>
        <time>2013-05-08T10:51:54Z</time>
      </trkpt>
      <trkpt lat="43.52498" lon="6.77183">
        <ele>125.6</ele>
        <time>2013-05-08T10:52:03Z</time>
      </trkpt>
      <trkpt lat="43.52498" lon="6.77144">
        <ele>125.6</ele>
        <time>2013-05-08T10:52:13Z</time>
      </trkpt>
      <trkpt lat="43.52477" lon="6.771">
        <ele>126.1</ele>
        <time>2013-05-08T10:52:23Z</time>
      </trkpt>
      <trkpt lat="43.52457" lon="6.7705">
        <ele>126.6</ele>
        <time>2013-05-08T10:52:33Z</time>
      </trkpt>
      <trkpt lat="43.52419" lon="6.7706">
        <ele>126.6</ele>
        <time>2013-05-08T10:52:43Z</time>
      </trkpt>
      <trkpt lat="43.5238" lon="6.77035">
        <ele>126.6</ele>
        <time>2013-05-08T10:52:53Z</time>
      </trkpt>
      <trkpt lat="43.52338" lon="6.77038">
        <ele>126.6</ele>
        <time>2013-05-08T10:53:03Z</time>
      </trkpt>
      <trkpt lat="43.52304" lon="6.77057">
        <ele>126.1</ele>
        <time>2013-05-08T10:53:11Z</time>
      </trkpt>
      <trkpt lat="43.52262" lon="6.77065">
        <ele>126.1</ele>
        <time>2013-05-08T10:53:21Z</time>
      </trkpt>
      <trkpt lat="43.52226" lon="6.77086">
        <ele>126.6</ele>
        <time>2013-05-08T10:53:35Z</time>
      </trkpt>
      <trkpt lat="43.5219" lon="6.77101">
        <ele>126.6</ele>
        <time>2013-05-08T10:53:46Z</time>
      </trkpt>
      <trkpt lat="43.52164" lon="6.77126">
        <ele>128</ele>
        <time>2013-05-08T10:53:57Z</time>
      </trkpt>
      <trkpt lat="43.52134" lon="6.77154">
        <ele>128</ele>
        <time>2013-05-08T10:54:07Z</time>
      </trkpt>
      <trkpt lat="43.521" lon="6.77142">
        <ele>127.5</ele>
        <time>2013-05-08T10:54:17Z</time>
      </trkpt>
      <trkpt lat="43.5205" lon="6.77131">
        <ele>128.5</ele>
        <time>2013-05-08T10:54:33Z</time>
      </trkpt>
      <trkpt lat="43.5203" lon="6.77082">
        <ele>127.5</ele>
        <time>2013-05-08T10:54:43Z</time>
      </trkpt>
      <trkpt lat="43.51998" lon="6.77063">
        <ele>127.5</ele>
        <time>2013-05-08T10:54:54Z</time>
      </trkpt>
      <trkpt lat="43.51948" lon="6.77046">
        <ele>128.5</ele>
        <time>2013-05-08T10:55:21Z</time>
      </trkpt>
      <trkpt lat="43.51911" lon="6.77073">
        <ele>128.5</ele>
        <time>2013-05-08T10:55:34Z</time>
      </trkpt>
      <trkpt lat="43.51877" lon="6.77097">
        <ele>129</ele>
        <time>2013-05-08T10:55:44Z</time>
      </trkpt>
      <trkpt lat="43.51871" lon="6.77058">
        <ele>127.5</ele>
        <time>2013-05-08T10:55:55Z</time>
      </trkpt>
      <trkpt lat="43.51879" lon="6.77003">
        <ele>127.5</ele>
        <time>2013-05-08T10:56:04Z</time>
      </trkpt>
      <trkpt lat="43.51882" lon="6.76944">
        <ele>128</ele>
        <time>2013-05-08T10:56:14Z</time>
      </trkpt>
      <trkpt lat="43.51884" lon="6.76885">
        <ele>127.5</ele>
        <time>2013-05-08T10:56:24Z</time>
      </trkpt>
      <trkpt lat="43.51874" lon="6.76828">
        <ele>128</ele>
        <time>2013-05-08T10:56:34Z</time>
      </trkpt>
      <trkpt lat="43.51851" lon="6.76781">
        <ele>128</ele>
        <time>2013-05-08T10:56:45Z</time>
      </trkpt>
      <trkpt lat="43.51839" lon="6.76726">
        <ele>127</ele>
        <time>2013-05-08T10:56:55Z</time>
      </trkpt>
      <trkpt lat="43.51831" lon="6.76697">
        <ele>127</ele>
        <time>2013-05-08T10:57:00Z</time>
      </trkpt>
      <trkpt lat="43.51812" lon="6.76649">
        <ele>127</ele>
        <time>2013-05-08T10:57:09Z</time>
      </trkpt>
      <trkpt lat="43.51781" lon="6.76606">
        <ele>127</ele>
        <time>2013-05-08T10:57:19Z</time>
      </trkpt>
      <trkpt lat="43.51746" lon="6.76595">
        <ele>127.5</ele>
        <time>2013-05-08T10:57:28Z</time>
      </trkpt>
      <trkpt lat="43.51734" lon="6.76535">
        <ele>128</ele>
        <time>2013-05-08T10:57:44Z</time>
      </trkpt>
      <trkpt lat="43.51714" lon="6.76495">
        <ele>127.5</ele>
        <time>2013-05-08T10:57:54Z</time>
      </trkpt>
      <trkpt lat="43.51722" lon="6.76444">
        <ele>127.5</ele>
        <time>2013-05-08T10:58:04Z</time>
      </trkpt>
      <trkpt lat="43.51704" lon="6.76389">
        <ele>127</ele>
        <time>2013-05-08T10:58:14Z</time>
      </trkpt>
      <trkpt lat="43.51666" lon="6.76363">
        <ele>127.5</ele>
        <time>2013-05-08T10:58:24Z</time>
      </trkpt>
      <trkpt lat="43.51632" lon="6.76343">
        <ele>126.6</ele>
        <time>2013-05-08T10:58:33Z</time>
      </trkpt>
      <trkpt lat="43.51597" lon="6.7632">
        <ele>127</ele>
        <time>2013-05-08T10:58:42Z</time>
      </trkpt>
      <trkpt lat="43.51573" lon="6.76257">
        <ele>127</ele>
        <time>2013-05-08T10:58:57Z</time>
      </trkpt>
      <trkpt lat="43.51557" lon="6.76209">
        <ele>127</ele>
        <time>2013-05-08T10:59:08Z</time>
      </trkpt>
      <trkpt lat="43.51537" lon="6.76163">
        <ele>127</ele>
        <time>2013-05-08T10:59:18Z</time>
      </trkpt>
      <trkpt lat="43.51501" lon="6.76129">
        <ele>127</ele>
        <time>2013-05-08T10:59:28Z</time>
      </trkpt>
      <trkpt lat="43.51479" lon="6.7608">
        <ele>127</ele>
        <time>2013-05-08T10:59:38Z</time>
      </trkpt>
      <trkpt lat="43.51446" lon="6.7605">
        <ele>127</ele>
        <time>2013-05-08T10:59:48Z</time>
      </trkpt>
      <trkpt lat="43.51413" lon="6.76066">
        <ele>127</ele>
        <time>2013-05-08T10:59:58Z</time>
      </trkpt>
      <trkpt lat="43.5138" lon="6.76036">
        <ele>127.5</ele>
        <time>2013-05-08T11:00:08Z</time>
      </trkpt>
      <trkpt lat="43.51359" lon="6.75987">
        <ele>127</ele>
        <time>2013-05-08T11:00:18Z</time>
      </trkpt>
      <trkpt lat="43.51336" lon="6.75945">
        <ele>128</ele>
        <time>2013-05-08T11:00:28Z</time>
      </trkpt>
      <trkpt lat="43.51285" lon="6.7594">
        <ele>127.5</ele>
        <time>2013-05-08T11:01:23Z</time>
      </trkpt>
      <trkpt lat="43.51273" lon="6.75991">
        <ele>127</ele>
        <time>2013-05-08T11:01:35Z</time>
      </trkpt>
      <trkpt lat="43.51236" lon="6.75981">
        <ele>127.5</ele>
        <time>2013-05-08T11:01:47Z</time>
      </trkpt>
      <trkpt lat="43.51213" lon="6.75943">
        <ele>127.5</ele>
        <time>2013-05-08T11:01:57Z</time>
      </trkpt>
      <trkpt lat="43.51186" lon="6.75905">
        <ele>129.9</ele>
        <time>2013-05-08T11:02:09Z</time>
      </trkpt>
      <trkpt lat="43.51156" lon="6.75894">
        <ele>132.8</ele>
        <time>2013-05-08T11:03:40Z</time>
      </trkpt>
      <trkpt lat="43.51118" lon="6.75912">
        <ele>130.9</ele>
        <time>2013-05-08T11:03:51Z</time>
      </trkpt>
      <trkpt lat="43.51099" lon="6.75955">
        <ele>134.7</ele>
        <time>2013-05-08T11:04:07Z</time>
      </trkpt>
      <trkpt lat="43.51062" lon="6.75972">
        <ele>138.1</ele>
        <time>2013-05-08T11:04:28Z</time>
      </trkpt>
      <trkpt lat="43.51024" lon="6.7599">
        <ele>134.2</ele>
        <time>2013-05-08T11:04:38Z</time>
      </trkpt>
      <trkpt lat="43.51001" lon="6.75991">
        <ele>131.8</ele>
        <time>2013-05-08T11:04:42Z</time>
      </trkpt>
      <trkpt lat="43.50963" lon="6.75978">
        <ele>124.6</ele>
        <time>2013-05-08T11:04:51Z</time>
      </trkpt>
      <trkpt lat="43.50922" lon="6.75966">
        <ele>118.9</ele>
        <time>2013-05-08T11:05:00Z</time>
      </trkpt>
      <trkpt lat="43.50883" lon="6.75951">
        <ele>114.1</ele>
        <time>2013-05-08T11:05:10Z</time>
      </trkpt>
      <trkpt lat="43.50845" lon="6.75921">
        <ele>103.5</ele>
        <time>2013-05-08T11:05:19Z</time>
      </trkpt>
      <trkpt lat="43.50805" lon="6.75912">
        <ele>95.8</ele>
        <time>2013-05-08T11:05:27Z</time>
      </trkpt>
      <trkpt lat="43.50778" lon="6.75882">
        <ele>92.4</ele>
        <time>2013-05-08T11:05:35Z</time>
      </trkpt>
      <trkpt lat="43.50768" lon="6.75879">
        <ele>91</ele>
        <time>2013-05-08T11:06:33Z</time>
      </trkpt>
      <trkpt lat="43.50744" lon="6.75871">
        <ele>85.7</ele>
        <time>2013-05-08T11:06:37Z</time>
      </trkpt>
      <trkpt lat="43.50703" lon="6.75863">
        <ele>79.4</ele>
        <time>2013-05-08T11:06:43Z</time>
      </trkpt>
      <trkpt lat="43.50679" lon="6.75863">
        <ele>77.5</ele>
        <time>2013-05-08T11:06:46Z</time>
      </trkpt>
      <trkpt lat="43.50654" lon="6.75857">
        <ele>74.6</ele>
        <time>2013-05-08T11:06:49Z</time>
      </trkpt>
      <trkpt lat="43.5063" lon="6.75849">
        <ele>71.8</ele>
        <time>2013-05-08T11:06:52Z</time>
      </trkpt>
      <trkpt lat="43.50588" lon="6.75818">
        <ele>65.5</ele>
        <time>2013-05-08T11:06:58Z</time>
      </trkpt>
      <trkpt lat="43.50566" lon="6.758">
        <ele>63.6</ele>
        <time>2013-05-08T11:07:01Z</time>
      </trkpt>
      <trkpt lat="43.50536" lon="6.75765">
        <ele>61.7</ele>
        <time>2013-05-08T11:07:07Z</time>
      </trkpt>
      <trkpt lat="43.50562" lon="6.75724">
        <ele>57.8</ele>
        <time>2013-05-08T11:07:16Z</time>
      </trkpt>
      <trkpt lat="43.5059" lon="6.7568">
        <ele>50.1</ele>
        <time>2013-05-08T11:07:24Z</time>
      </trkpt>
      <trkpt lat="43.50571" lon="6.75648">
        <ele>44.4</ele>
        <time>2013-05-08T11:07:32Z</time>
      </trkpt>
      <trkpt lat="43.50535" lon="6.75679">
        <ele>43.4</ele>
        <time>2013-05-08T11:07:39Z</time>
      </trkpt>
      <trkpt lat="43.50501" lon="6.75717">
        <ele>43.4</ele>
        <time>2013-05-08T11:07:47Z</time>
      </trkpt>
      <trkpt lat="43.50474" lon="6.75758">
        <ele>44.4</ele>
        <time>2013-05-08T11:07:56Z</time>
      </trkpt>
      <trkpt lat="43.50467" lon="6.75788">
        <ele>42.9</ele>
        <time>2013-05-08T11:08:01Z</time>
      </trkpt>
      <trkpt lat="43.50453" lon="6.75836">
        <ele>43.9</ele>
        <time>2013-05-08T11:08:11Z</time>
      </trkpt>
      <trkpt lat="43.50453" lon="6.7587">
        <ele>41</ele>
        <time>2013-05-08T11:13:18Z</time>
      </trkpt>
      <trkpt lat="43.50431" lon="6.75913">
        <ele>45.3</ele>
        <time>2013-05-08T11:13:35Z</time>
      </trkpt>
      <trkpt lat="43.50431" lon="6.75958">
        <ele>47.7</ele>
        <time>2013-05-08T11:13:49Z</time>
      </trkpt>
      <trkpt lat="43.5046" lon="6.75994">
        <ele>51.6</ele>
        <time>2013-05-08T11:14:05Z</time>
      </trkpt>
      <trkpt lat="43.50495" lon="6.76014">
        <ele>54.5</ele>
        <time>2013-05-08T11:14:22Z</time>
      </trkpt>
      <trkpt lat="43.50523" lon="6.76045">
        <ele>59.7</ele>
        <time>2013-05-08T11:14:45Z</time>
      </trkpt>
      <trkpt lat="43.50538" lon="6.76097">
        <ele>62.6</ele>
        <time>2013-05-08T11:15:04Z</time>
      </trkpt>
      <trkpt lat="43.50549" lon="6.76148">
        <ele>62.6</ele>
        <time>2013-05-08T11:15:17Z</time>
      </trkpt>
      <trkpt lat="43.50563" lon="6.76199">
        <ele>63.6</ele>
        <time>2013-05-08T11:15:29Z</time>
      </trkpt>
      <trkpt lat="43.50589" lon="6.76239">
        <ele>65.5</ele>
        <time>2013-05-08T11:15:42Z</time>
      </trkpt>
      <trkpt lat="43.50602" lon="6.76284">
        <ele>66.9</ele>
        <time>2013-05-08T11:15:55Z</time>
      </trkpt>
      <trkpt lat="43.50606" lon="6.76334">
        <ele>72.2</ele>
        <time>2013-05-08T11:16:16Z</time>
      </trkpt>
      <trkpt lat="43.50636" lon="6.76359">
        <ele>75.6</ele>
        <time>2013-05-08T11:16:35Z</time>
      </trkpt>
      <trkpt lat="43.50672" lon="6.76373">
        <ele>77.5</ele>
        <time>2013-05-08T11:16:50Z</time>
      </trkpt>
      <trkpt lat="43.50707" lon="6.76393">
        <ele>78.5</ele>
        <time>2013-05-08T11:17:02Z</time>
      </trkpt>
      <trkpt lat="43.50741" lon="6.76418">
        <ele>79.9</ele>
        <time>2013-05-08T11:17:15Z</time>
      </trkpt>
      <trkpt lat="43.50772" lon="6.76456">
        <ele>79.9</ele>
        <time>2013-05-08T11:17:29Z</time>
      </trkpt>
      <trkpt lat="43.50787" lon="6.76479">
        <ele>80.4</ele>
        <time>2013-05-08T11:17:34Z</time>
      </trkpt>
      <trkpt lat="43.50796" lon="6.76533">
        <ele>76.6</ele>
        <time>2013-05-08T11:17:43Z</time>
      </trkpt>
      <trkpt lat="43.50814" lon="6.7659">
        <ele>69.4</ele>
        <time>2013-05-08T11:17:49Z</time>
      </trkpt>
      <trkpt lat="43.50816" lon="6.76626">
        <ele>69.4</ele>
        <time>2013-05-08T11:17:52Z</time>
      </trkpt>
      <trkpt lat="43.50811" lon="6.76657">
        <ele>70.3</ele>
        <time>2013-05-08T11:17:55Z</time>
      </trkpt>
      <trkpt lat="43.50797" lon="6.76682">
        <ele>72.2</ele>
        <time>2013-05-08T11:17:59Z</time>
      </trkpt>
      <trkpt lat="43.50771" lon="6.7672">
        <ele>78</ele>
        <time>2013-05-08T11:18:27Z</time>
      </trkpt>
      <trkpt lat="43.50775" lon="6.7677">
        <ele>79.4</ele>
        <time>2013-05-08T11:18:40Z</time>
      </trkpt>
      <trkpt lat="43.50747" lon="6.76839">
        <ele>83.8</ele>
        <time>2013-05-08T11:19:01Z</time>
      </trkpt>
      <trkpt lat="43.50729" lon="6.76886">
        <ele>84.3</ele>
        <time>2013-05-08T11:19:13Z</time>
      </trkpt>
      <trkpt lat="43.50727" lon="6.7694">
        <ele>84.3</ele>
        <time>2013-05-08T11:19:25Z</time>
      </trkpt>
      <trkpt lat="43.50708" lon="6.76907">
        <ele>83.3</ele>
        <time>2013-05-08T11:19:36Z</time>
      </trkpt>
      <trkpt lat="43.50683" lon="6.76925">
        <ele>84.3</ele>
        <time>2013-05-08T11:19:48Z</time>
      </trkpt>
      <trkpt lat="43.5067" lon="6.76976">
        <ele>84.7</ele>
        <time>2013-05-08T11:19:59Z</time>
      </trkpt>
      <trkpt lat="43.50644" lon="6.76972">
        <ele>84.7</ele>
        <time>2013-05-08T11:20:09Z</time>
      </trkpt>
      <trkpt lat="43.50612" lon="6.76939">
        <ele>83.8</ele>
        <time>2013-05-08T11:20:19Z</time>
      </trkpt>
      <trkpt lat="43.5059" lon="6.76944">
        <ele>83.8</ele>
        <time>2013-05-08T11:20:24Z</time>
      </trkpt>
      <trkpt lat="43.50553" lon="6.76905">
        <ele>76.1</ele>
        <time>2013-05-08T11:20:38Z</time>
      </trkpt>
      <trkpt lat="43.50541" lon="6.76857">
        <ele>71.3</ele>
        <time>2013-05-08T11:20:42Z</time>
      </trkpt>
      <trkpt lat="43.50526" lon="6.76807">
        <ele>65.5</ele>
        <time>2013-05-08T11:20:46Z</time>
      </trkpt>
      <trkpt lat="43.50517" lon="6.76744">
        <ele>65</ele>
        <time>2013-05-08T11:20:51Z</time>
      </trkpt>
      <trkpt lat="43.50517" lon="6.76707">
        <ele>62.6</ele>
        <time>2013-05-08T11:20:54Z</time>
      </trkpt>
      <trkpt lat="43.50509" lon="6.76673">
        <ele>61.2</ele>
        <time>2013-05-08T11:20:57Z</time>
      </trkpt>
      <trkpt lat="43.5049" lon="6.76655">
        <ele>60.2</ele>
        <time>2013-05-08T11:21:00Z</time>
      </trkpt>
      <trkpt lat="43.50476" lon="6.76697">
        <ele>60.7</ele>
        <time>2013-05-08T11:21:08Z</time>
      </trkpt>
      <trkpt lat="43.50451" lon="6.76737">
        <ele>64.5</ele>
        <time>2013-05-08T11:21:29Z</time>
      </trkpt>
      <trkpt lat="43.50455" lon="6.7679">
        <ele>69.8</ele>
        <time>2013-05-08T11:21:49Z</time>
      </trkpt>
      <trkpt lat="43.50439" lon="6.7684">
        <ele>73.7</ele>
        <time>2013-05-08T11:22:08Z</time>
      </trkpt>
      <trkpt lat="43.50428" lon="6.76892">
        <ele>76.6</ele>
        <time>2013-05-08T11:22:24Z</time>
      </trkpt>
      <trkpt lat="43.50404" lon="6.76933">
        <ele>78</ele>
        <time>2013-05-08T11:22:39Z</time>
      </trkpt>
      <trkpt lat="43.50367" lon="6.76948">
        <ele>77.5</ele>
        <time>2013-05-08T11:22:51Z</time>
      </trkpt>
      <trkpt lat="43.50334" lon="6.76951">
        <ele>81.4</ele>
        <time>2013-05-08T11:23:09Z</time>
      </trkpt>
      <trkpt lat="43.50303" lon="6.76982">
        <ele>86.2</ele>
        <time>2013-05-08T11:23:30Z</time>
      </trkpt>
      <trkpt lat="43.50265" lon="6.76992">
        <ele>90.5</ele>
        <time>2013-05-08T11:23:53Z</time>
      </trkpt>
      <trkpt lat="43.50231" lon="6.76976">
        <ele>92.9</ele>
        <time>2013-05-08T11:24:10Z</time>
      </trkpt>
      <trkpt lat="43.50209" lon="6.76931">
        <ele>94.3</ele>
        <time>2013-05-08T11:24:26Z</time>
      </trkpt>
      <trkpt lat="43.50171" lon="6.76914">
        <ele>89.1</ele>
        <time>2013-05-08T11:24:39Z</time>
      </trkpt>
      <trkpt lat="43.50138" lon="6.76878">
        <ele>82.8</ele>
        <time>2013-05-08T11:24:45Z</time>
      </trkpt>
      <trkpt lat="43.50126" lon="6.76849">
        <ele>80.9</ele>
        <time>2013-05-08T11:24:48Z</time>
      </trkpt>
      <trkpt lat="43.50104" lon="6.76835">
        <ele>79.4</ele>
        <time>2013-05-08T11:24:51Z</time>
      </trkpt>
      <trkpt lat="43.5008" lon="6.76828">
        <ele>77.5</ele>
        <time>2013-05-08T11:24:54Z</time>
      </trkpt>
      <trkpt lat="43.50057" lon="6.76818">
        <ele>75.6</ele>
        <time>2013-05-08T11:24:57Z</time>
      </trkpt>
      <trkpt lat="43.50033" lon="6.76808">
        <ele>73.7</ele>
        <time>2013-05-08T11:25:00Z</time>
      </trkpt>
      <trkpt lat="43.50008" lon="6.76794">
        <ele>69.8</ele>
        <time>2013-05-08T11:25:03Z</time>
      </trkpt>
      <trkpt lat="43.49967" lon="6.76774">
        <ele>68.4</ele>
        <time>2013-05-08T11:25:08Z</time>
      </trkpt>
      <trkpt lat="43.49934" lon="6.7675">
        <ele>68.9</ele>
        <time>2013-05-08T11:25:33Z</time>
      </trkpt>
      <trkpt lat="43.49919" lon="6.76701">
        <ele>67.4</ele>
        <time>2013-05-08T11:25:41Z</time>
      </trkpt>
      <trkpt lat="43.49912" lon="6.767">
        <ele>67.9</ele>
        <time>2013-05-08T11:26:03Z</time>
      </trkpt>
      <trkpt lat="43.49904" lon="6.76752">
        <ele>69.4</ele>
        <time>2013-05-08T11:26:17Z</time>
      </trkpt>
      <trkpt lat="43.49873" lon="6.76791">
        <ele>71.3</ele>
        <time>2013-05-08T11:26:30Z</time>
      </trkpt>
      <trkpt lat="43.49848" lon="6.76832">
        <ele>72.7</ele>
        <time>2013-05-08T11:26:42Z</time>
      </trkpt>
      <trkpt lat="43.4984" lon="6.76883">
        <ele>73.7</ele>
        <time>2013-05-08T11:26:54Z</time>
      </trkpt>
      <trkpt lat="43.49834" lon="6.76937">
        <ele>75.1</ele>
        <time>2013-05-08T11:27:06Z</time>
      </trkpt>
      <trkpt lat="43.49812" lon="6.76977">
        <ele>77</ele>
        <time>2013-05-08T11:27:18Z</time>
      </trkpt>
      <trkpt lat="43.49781" lon="6.77007">
        <ele>79</ele>
        <time>2013-05-08T11:27:31Z</time>
      </trkpt>
      <trkpt lat="43.49755" lon="6.77048">
        <ele>80.9</ele>
        <time>2013-05-08T11:27:44Z</time>
      </trkpt>
      <trkpt lat="43.49734" lon="6.77096">
        <ele>83.3</ele>
        <time>2013-05-08T11:27:58Z</time>
      </trkpt>
      <trkpt lat="43.49711" lon="6.77054">
        <ele>85.2</ele>
        <time>2013-05-08T11:28:17Z</time>
      </trkpt>
      <trkpt lat="43.4971" lon="6.77002">
        <ele>86.7</ele>
        <time>2013-05-08T11:28:29Z</time>
      </trkpt>
      <trkpt lat="43.49698" lon="6.76949">
        <ele>89.5</ele>
        <time>2013-05-08T11:28:43Z</time>
      </trkpt>
      <trkpt lat="43.49693" lon="6.76898">
        <ele>91.9</ele>
        <time>2013-05-08T11:28:57Z</time>
      </trkpt>
      <trkpt lat="43.4972" lon="6.76861">
        <ele>94.3</ele>
        <time>2013-05-08T11:29:12Z</time>
      </trkpt>
      <trkpt lat="43.49747" lon="6.7683">
        <ele>96.7</ele>
        <time>2013-05-08T11:29:26Z</time>
      </trkpt>
      <trkpt lat="43.49739" lon="6.76778">
        <ele>99.2</ele>
        <time>2013-05-08T11:29:41Z</time>
      </trkpt>
      <trkpt lat="43.49729" lon="6.76727">
        <ele>101.1</ele>
        <time>2013-05-08T11:29:55Z</time>
      </trkpt>
      <trkpt lat="43.49711" lon="6.76683">
        <ele>103.5</ele>
        <time>2013-05-08T11:30:09Z</time>
      </trkpt>
      <trkpt lat="43.49697" lon="6.76638">
        <ele>105.9</ele>
        <time>2013-05-08T11:30:23Z</time>
      </trkpt>
      <trkpt lat="43.49689" lon="6.76678">
        <ele>107.8</ele>
        <time>2013-05-08T11:30:38Z</time>
      </trkpt>
      <trkpt lat="43.49689" lon="6.76729">
        <ele>109.7</ele>
        <time>2013-05-08T11:30:52Z</time>
      </trkpt>
      <trkpt lat="43.4968" lon="6.76779">
        <ele>111.7</ele>
        <time>2013-05-08T11:31:07Z</time>
      </trkpt>
      <trkpt lat="43.49631" lon="6.76814">
        <ele>115</ele>
        <time>2013-05-08T11:31:31Z</time>
      </trkpt>
      <trkpt lat="43.49601" lon="6.76847">
        <ele>116.9</ele>
        <time>2013-05-08T11:31:47Z</time>
      </trkpt>
      <trkpt lat="43.49571" lon="6.7688">
        <ele>119.3</ele>
        <time>2013-05-08T11:32:01Z</time>
      </trkpt>
      <trkpt lat="43.49543" lon="6.76915">
        <ele>121.7</ele>
        <time>2013-05-08T11:32:17Z</time>
      </trkpt>
      <trkpt lat="43.49508" lon="6.76912">
        <ele>123.7</ele>
        <time>2013-05-08T11:32:31Z</time>
      </trkpt>
      <trkpt lat="43.4947" lon="6.76912">
        <ele>127</ele>
        <time>2013-05-08T11:32:48Z</time>
      </trkpt>
      <trkpt lat="43.49436" lon="6.76896">
        <ele>131.4</ele>
        <time>2013-05-08T11:33:10Z</time>
      </trkpt>
      <trkpt lat="43.49399" lon="6.76879">
        <ele>135.2</ele>
        <time>2013-05-08T11:33:33Z</time>
      </trkpt>
      <trkpt lat="43.49367" lon="6.76848">
        <ele>137.1</ele>
        <time>2013-05-08T11:33:50Z</time>
      </trkpt>
      <trkpt lat="43.49336" lon="6.76812">
        <ele>141.5</ele>
        <time>2013-05-08T11:34:10Z</time>
      </trkpt>
      <trkpt lat="43.49311" lon="6.76808">
        <ele>144.3</ele>
        <time>2013-05-08T11:34:30Z</time>
      </trkpt>
      <trkpt lat="43.49301" lon="6.76859">
        <ele>146.3</ele>
        <time>2013-05-08T11:34:45Z</time>
      </trkpt>
      <trkpt lat="43.49295" lon="6.76907">
        <ele>148.7</ele>
        <time>2013-05-08T11:35:01Z</time>
      </trkpt>
      <trkpt lat="43.49269" lon="6.76946">
        <ele>151.1</ele>
        <time>2013-05-08T11:35:17Z</time>
      </trkpt>
      <trkpt lat="43.49246" lon="6.76988">
        <ele>154.4</ele>
        <time>2013-05-08T11:35:34Z</time>
      </trkpt>
      <trkpt lat="43.49248" lon="6.77041">
        <ele>156.4</ele>
        <time>2013-05-08T11:35:50Z</time>
      </trkpt>
      <trkpt lat="43.49251" lon="6.77091">
        <ele>158.8</ele>
        <time>2013-05-08T11:36:06Z</time>
      </trkpt>
      <trkpt lat="43.49236" lon="6.77139">
        <ele>162.1</ele>
        <time>2013-05-08T11:36:24Z</time>
      </trkpt>
      <trkpt lat="43.49231" lon="6.77185">
        <ele>164</ele>
        <time>2013-05-08T11:36:40Z</time>
      </trkpt>
      <trkpt lat="43.4928" lon="6.77201">
        <ele>164</ele>
        <time>2013-05-08T11:37:00Z</time>
      </trkpt>
      <trkpt lat="43.49311" lon="6.77235">
        <ele>164</ele>
        <time>2013-05-08T11:37:11Z</time>
      </trkpt>
      <trkpt lat="43.49338" lon="6.77274">
        <ele>164</ele>
        <time>2013-05-08T11:37:21Z</time>
      </trkpt>
      <trkpt lat="43.49344" lon="6.77325">
        <ele>166.4</ele>
        <time>2013-05-08T11:37:34Z</time>
      </trkpt>
      <trkpt lat="43.4934" lon="6.77376">
        <ele>169.3</ele>
        <time>2013-05-08T11:37:51Z</time>
      </trkpt>
      <trkpt lat="43.49331" lon="6.77426">
        <ele>173.2</ele>
        <time>2013-05-08T11:38:13Z</time>
      </trkpt>
      <trkpt lat="43.4935" lon="6.7747">
        <ele>175.6</ele>
        <time>2013-05-08T11:38:29Z</time>
      </trkpt>
      <trkpt lat="43.4934" lon="6.7752">
        <ele>178.9</ele>
        <time>2013-05-08T11:38:45Z</time>
      </trkpt>
      <trkpt lat="43.49332" lon="6.77569">
        <ele>181.8</ele>
        <time>2013-05-08T11:39:01Z</time>
      </trkpt>
      <trkpt lat="43.49334" lon="6.77626">
        <ele>185.2</ele>
        <time>2013-05-08T11:39:19Z</time>
      </trkpt>
      <trkpt lat="43.49321" lon="6.77674">
        <ele>188.1</ele>
        <time>2013-05-08T11:39:36Z</time>
      </trkpt>
      <trkpt lat="43.49303" lon="6.77713">
        <ele>191.4</ele>
        <time>2013-05-08T11:39:54Z</time>
      </trkpt>
      <trkpt lat="43.49326" lon="6.77756">
        <ele>189</ele>
        <time>2013-05-08T11:40:07Z</time>
      </trkpt>
      <trkpt lat="43.49362" lon="6.77767">
        <ele>177</ele>
        <time>2013-05-08T11:42:09Z</time>
      </trkpt>
      <trkpt lat="43.49404" lon="6.77772">
        <ele>174.1</ele>
        <time>2013-05-08T11:42:16Z</time>
      </trkpt>
      <trkpt lat="43.49446" lon="6.77775">
        <ele>171.3</ele>
        <time>2013-05-08T11:42:22Z</time>
      </trkpt>
      <trkpt lat="43.49489" lon="6.77771">
        <ele>168.8</ele>
        <time>2013-05-08T11:42:28Z</time>
      </trkpt>
      <trkpt lat="43.49534" lon="6.77774">
        <ele>167.4</ele>
        <time>2013-05-08T11:42:34Z</time>
      </trkpt>
      <trkpt lat="43.49556" lon="6.77779">
        <ele>166.4</ele>
        <time>2013-05-08T11:42:37Z</time>
      </trkpt>
      <trkpt lat="43.4958" lon="6.7779">
        <ele>165</ele>
        <time>2013-05-08T11:42:40Z</time>
      </trkpt>
      <trkpt lat="43.49612" lon="6.77762">
        <ele>165.5</ele>
        <time>2013-05-08T11:42:46Z</time>
      </trkpt>
      <trkpt lat="43.49633" lon="6.77749">
        <ele>165.5</ele>
        <time>2013-05-08T11:42:50Z</time>
      </trkpt>
      <trkpt lat="43.49657" lon="6.77746">
        <ele>164.5</ele>
        <time>2013-05-08T11:42:54Z</time>
      </trkpt>
      <trkpt lat="43.49699" lon="6.77745">
        <ele>164.5</ele>
        <time>2013-05-08T11:43:01Z</time>
      </trkpt>
      <trkpt lat="43.49721" lon="6.77754">
        <ele>164.5</ele>
        <time>2013-05-08T11:43:05Z</time>
      </trkpt>
      <trkpt lat="43.49762" lon="6.77751">
        <ele>165.5</ele>
        <time>2013-05-08T11:43:13Z</time>
      </trkpt>
      <trkpt lat="43.49784" lon="6.77743">
        <ele>164.5</ele>
        <time>2013-05-08T11:43:17Z</time>
      </trkpt>
      <trkpt lat="43.49803" lon="6.77722">
        <ele>163.6</ele>
        <time>2013-05-08T11:43:21Z</time>
      </trkpt>
      <trkpt lat="43.49826" lon="6.77674">
        <ele>162.1</ele>
        <time>2013-05-08T11:43:28Z</time>
      </trkpt>
      <trkpt lat="43.49857" lon="6.77638">
        <ele>161.2</ele>
        <time>2013-05-08T11:43:35Z</time>
      </trkpt>
      <trkpt lat="43.49888" lon="6.77609">
        <ele>159.2</ele>
        <time>2013-05-08T11:43:41Z</time>
      </trkpt>
      <trkpt lat="43.49923" lon="6.77585">
        <ele>159.2</ele>
        <time>2013-05-08T11:43:48Z</time>
      </trkpt>
      <trkpt lat="43.49967" lon="6.77577">
        <ele>158.3</ele>
        <time>2013-05-08T11:43:56Z</time>
      </trkpt>
      <trkpt lat="43.49991" lon="6.77581">
        <ele>157.8</ele>
        <time>2013-05-08T11:44:00Z</time>
      </trkpt>
      <trkpt lat="43.50031" lon="6.77577">
        <ele>157.3</ele>
        <time>2013-05-08T11:44:07Z</time>
      </trkpt>
      <trkpt lat="43.50068" lon="6.77552">
        <ele>156.8</ele>
        <time>2013-05-08T11:44:15Z</time>
      </trkpt>
      <trkpt lat="43.50103" lon="6.77527">
        <ele>156.8</ele>
        <time>2013-05-08T11:44:23Z</time>
      </trkpt>
      <trkpt lat="43.50143" lon="6.77505">
        <ele>155.9</ele>
        <time>2013-05-08T11:44:31Z</time>
      </trkpt>
      <trkpt lat="43.50166" lon="6.77499">
        <ele>154.9</ele>
        <time>2013-05-08T11:44:35Z</time>
      </trkpt>
      <trkpt lat="43.50189" lon="6.77504">
        <ele>154.4</ele>
        <time>2013-05-08T11:44:39Z</time>
      </trkpt>
      <trkpt lat="43.50212" lon="6.77509">
        <ele>154.4</ele>
        <time>2013-05-08T11:44:43Z</time>
      </trkpt>
      <trkpt lat="43.50267" lon="6.77523">
        <ele>154.9</ele>
        <time>2013-05-08T11:45:23Z</time>
      </trkpt>
      <trkpt lat="43.50305" lon="6.77545">
        <ele>153.9</ele>
        <time>2013-05-08T11:45:32Z</time>
      </trkpt>
      <trkpt lat="43.50346" lon="6.77551">
        <ele>153</ele>
        <time>2013-05-08T11:45:40Z</time>
      </trkpt>
      <trkpt lat="43.50384" lon="6.77562">
        <ele>152.5</ele>
        <time>2013-05-08T11:45:48Z</time>
      </trkpt>
      <trkpt lat="43.50423" lon="6.77584">
        <ele>151.5</ele>
        <time>2013-05-08T11:45:56Z</time>
      </trkpt>
      <trkpt lat="43.50461" lon="6.77603">
        <ele>151.5</ele>
        <time>2013-05-08T11:46:03Z</time>
      </trkpt>
      <trkpt lat="43.50496" lon="6.77602">
        <ele>153</ele>
        <time>2013-05-08T11:46:12Z</time>
      </trkpt>
      <trkpt lat="43.50516" lon="6.77559">
        <ele>154.4</ele>
        <time>2013-05-08T11:46:24Z</time>
      </trkpt>
      <trkpt lat="43.50532" lon="6.77519">
        <ele>156.8</ele>
        <time>2013-05-08T11:46:38Z</time>
      </trkpt>
      <trkpt lat="43.5055" lon="6.77475">
        <ele>159.2</ele>
        <time>2013-05-08T11:46:52Z</time>
      </trkpt>
      <trkpt lat="43.50598" lon="6.77447">
        <ele>163.1</ele>
        <time>2013-05-08T11:47:14Z</time>
      </trkpt>
      <trkpt lat="43.50622" lon="6.77408">
        <ele>164.5</ele>
        <time>2013-05-08T11:47:27Z</time>
      </trkpt>
      <trkpt lat="43.50654" lon="6.77428">
        <ele>166.9</ele>
        <time>2013-05-08T11:47:41Z</time>
      </trkpt>
      <trkpt lat="43.50697" lon="6.77471">
        <ele>169.8</ele>
        <time>2013-05-08T11:48:03Z</time>
      </trkpt>
      <trkpt lat="43.507" lon="6.77524">
        <ele>172.7</ele>
        <time>2013-05-08T11:48:18Z</time>
      </trkpt>
      <trkpt lat="43.5069" lon="6.77573">
        <ele>175.1</ele>
        <time>2013-05-08T11:48:30Z</time>
      </trkpt>
      <trkpt lat="43.50702" lon="6.77624">
        <ele>178</ele>
        <time>2013-05-08T11:48:44Z</time>
      </trkpt>
      <trkpt lat="43.50746" lon="6.77667">
        <ele>183.7</ele>
        <time>2013-05-08T11:49:09Z</time>
      </trkpt>
      <trkpt lat="43.50771" lon="6.77703">
        <ele>185.2</ele>
        <time>2013-05-08T11:49:23Z</time>
      </trkpt>
      <trkpt lat="43.50751" lon="6.77743">
        <ele>187.6</ele>
        <time>2013-05-08T11:49:38Z</time>
      </trkpt>
      <trkpt lat="43.50727" lon="6.77779">
        <ele>193.4</ele>
        <time>2013-05-08T11:50:03Z</time>
      </trkpt>
      <trkpt lat="43.50752" lon="6.77809">
        <ele>194.8</ele>
        <time>2013-05-08T11:50:22Z</time>
      </trkpt>
      <trkpt lat="43.50806" lon="6.7783">
        <ele>201.5</ele>
        <time>2013-05-08T11:51:01Z</time>
      </trkpt>
      <trkpt lat="43.50845" lon="6.77833">
        <ele>204.4</ele>
        <time>2013-05-08T11:51:22Z</time>
      </trkpt>
      <trkpt lat="43.50885" lon="6.7784">
        <ele>207.3</ele>
        <time>2013-05-08T11:51:42Z</time>
      </trkpt>
      <trkpt lat="43.50923" lon="6.77846">
        <ele>210.2</ele>
        <time>2013-05-08T11:52:02Z</time>
      </trkpt>
      <trkpt lat="43.50957" lon="6.77865">
        <ele>213.1</ele>
        <time>2013-05-08T11:52:23Z</time>
      </trkpt>
      <trkpt lat="43.50993" lon="6.77864">
        <ele>216</ele>
        <time>2013-05-08T11:52:44Z</time>
      </trkpt>
      <trkpt lat="43.51047" lon="6.77847">
        <ele>221.2</ele>
        <time>2013-05-08T11:53:15Z</time>
      </trkpt>
      <trkpt lat="43.51086" lon="6.77849">
        <ele>223.6</ele>
        <time>2013-05-08T11:53:35Z</time>
      </trkpt>
      <trkpt lat="43.5112" lon="6.77865">
        <ele>227.5</ele>
        <time>2013-05-08T11:53:56Z</time>
      </trkpt>
      <trkpt lat="43.51123" lon="6.77911">
        <ele>229.4</ele>
        <time>2013-05-08T11:54:15Z</time>
      </trkpt>
      <trkpt lat="43.51109" lon="6.77962">
        <ele>231.8</ele>
        <time>2013-05-08T11:54:31Z</time>
      </trkpt>
      <trkpt lat="43.51107" lon="6.78014">
        <ele>233.7</ele>
        <time>2013-05-08T11:54:47Z</time>
      </trkpt>
      <trkpt lat="43.51091" lon="6.78085">
        <ele>234.7</ele>
        <time>2013-05-08T11:55:08Z</time>
      </trkpt>
      <trkpt lat="43.51082" lon="6.78134">
        <ele>234.2</ele>
        <time>2013-05-08T11:55:20Z</time>
      </trkpt>
      <trkpt lat="43.51065" lon="6.78184">
        <ele>233.7</ele>
        <time>2013-05-08T11:55:32Z</time>
      </trkpt>
      <trkpt lat="43.51028" lon="6.78203">
        <ele>235.7</ele>
        <time>2013-05-08T11:55:44Z</time>
      </trkpt>
      <trkpt lat="43.50992" lon="6.78218">
        <ele>237.6</ele>
        <time>2013-05-08T11:55:57Z</time>
      </trkpt>
      <trkpt lat="43.50956" lon="6.78241">
        <ele>239</ele>
        <time>2013-05-08T11:56:11Z</time>
      </trkpt>
      <trkpt lat="43.50926" lon="6.78279">
        <ele>240.5</ele>
        <time>2013-05-08T11:56:25Z</time>
      </trkpt>
      <trkpt lat="43.50896" lon="6.78314">
        <ele>242.9</ele>
        <time>2013-05-08T11:56:39Z</time>
      </trkpt>
      <trkpt lat="43.50869" lon="6.78356">
        <ele>244.8</ele>
        <time>2013-05-08T11:56:53Z</time>
      </trkpt>
      <trkpt lat="43.50872" lon="6.7842">
        <ele>247.7</ele>
        <time>2013-05-08T11:57:14Z</time>
      </trkpt>
      <trkpt lat="43.50897" lon="6.78462">
        <ele>249.1</ele>
        <time>2013-05-08T11:57:28Z</time>
      </trkpt>
      <trkpt lat="43.50924" lon="6.78499">
        <ele>251.5</ele>
        <time>2013-05-08T11:57:43Z</time>
      </trkpt>
      <trkpt lat="43.5091" lon="6.78536">
        <ele>253</ele>
        <time>2013-05-08T11:59:40Z</time>
      </trkpt>
      <trkpt lat="43.50868" lon="6.78545">
        <ele>253</ele>
        <time>2013-05-08T12:00:00Z</time>
      </trkpt>
      <trkpt lat="43.50832" lon="6.78557">
        <ele>254.4</ele>
        <time>2013-05-08T12:00:12Z</time>
      </trkpt>
      <trkpt lat="43.50798" lon="6.78584">
        <ele>254.9</ele>
        <time>2013-05-08T12:00:24Z</time>
      </trkpt>
      <trkpt lat="43.50765" lon="6.7861">
        <ele>255.8</ele>
        <time>2013-05-08T12:00:36Z</time>
      </trkpt>
      <trkpt lat="43.50727" lon="6.78602">
        <ele>257.3</ele>
        <time>2013-05-08T12:00:48Z</time>
      </trkpt>
      <trkpt lat="43.50688" lon="6.78592">
        <ele>258.7</ele>
        <time>2013-05-08T12:01:00Z</time>
      </trkpt>
      <trkpt lat="43.50646" lon="6.78589">
        <ele>259.2</ele>
        <time>2013-05-08T12:01:12Z</time>
      </trkpt>
      <trkpt lat="43.50608" lon="6.78588">
        <ele>260.7</ele>
        <time>2013-05-08T12:01:23Z</time>
      </trkpt>
      <trkpt lat="43.50571" lon="6.78564">
        <ele>261.1</ele>
        <time>2013-05-08T12:01:34Z</time>
      </trkpt>
      <trkpt lat="43.50544" lon="6.78592">
        <ele>263.1</ele>
        <time>2013-05-08T12:01:52Z</time>
      </trkpt>
      <trkpt lat="43.50556" lon="6.78647">
        <ele>263.1</ele>
        <time>2013-05-08T12:02:03Z</time>
      </trkpt>
      <trkpt lat="43.50577" lon="6.78693">
        <ele>264</ele>
        <time>2013-05-08T12:02:14Z</time>
      </trkpt>
      <trkpt lat="43.50576" lon="6.78746">
        <ele>265.5</ele>
        <time>2013-05-08T12:02:24Z</time>
      </trkpt>
      <trkpt lat="43.50554" lon="6.78787">
        <ele>267.4</ele>
        <time>2013-05-08T12:02:36Z</time>
      </trkpt>
      <trkpt lat="43.50532" lon="6.78827">
        <ele>269.8</ele>
        <time>2013-05-08T12:02:49Z</time>
      </trkpt>
      <trkpt lat="43.50534" lon="6.78881">
        <ele>271.2</ele>
        <time>2013-05-08T12:03:03Z</time>
      </trkpt>
      <trkpt lat="43.50563" lon="6.78909">
        <ele>273.2</ele>
        <time>2013-05-08T12:03:17Z</time>
      </trkpt>
      <trkpt lat="43.50569" lon="6.78959">
        <ele>274.6</ele>
        <time>2013-05-08T12:03:31Z</time>
      </trkpt>
      <trkpt lat="43.50568" lon="6.78917">
        <ele>273.6</ele>
        <time>2013-05-08T12:04:28Z</time>
      </trkpt>
      <trkpt lat="43.50592" lon="6.78948">
        <ele>267.9</ele>
        <time>2013-05-08T12:04:41Z</time>
      </trkpt>
      <trkpt lat="43.50625" lon="6.79006">
        <ele>260.7</ele>
        <time>2013-05-08T12:05:28Z</time>
      </trkpt>
      <trkpt lat="43.50654" lon="6.79036">
        <ele>252</ele>
        <time>2013-05-08T12:05:50Z</time>
      </trkpt>
      <trkpt lat="43.50694" lon="6.79043">
        <ele>242.4</ele>
        <time>2013-05-08T12:06:05Z</time>
      </trkpt>
      <trkpt lat="43.50731" lon="6.79066">
        <ele>234.7</ele>
        <time>2013-05-08T12:06:19Z</time>
      </trkpt>
      <trkpt lat="43.50769" lon="6.79073">
        <ele>228.9</ele>
        <time>2013-05-08T12:06:33Z</time>
      </trkpt>
      <trkpt lat="43.50803" lon="6.79094">
        <ele>226</ele>
        <time>2013-05-08T12:06:45Z</time>
      </trkpt>
      <trkpt lat="43.5084" lon="6.79108">
        <ele>220.8</ele>
        <time>2013-05-08T12:06:56Z</time>
      </trkpt>
      <trkpt lat="43.50879" lon="6.79105">
        <ele>217.9</ele>
        <time>2013-05-08T12:07:09Z</time>
      </trkpt>
      <trkpt lat="43.50917" lon="6.79094">
        <ele>214.5</ele>
        <time>2013-05-08T12:07:22Z</time>
      </trkpt>
      <trkpt lat="43.50956" lon="6.79079">
        <ele>211.1</ele>
        <time>2013-05-08T12:07:35Z</time>
      </trkpt>
      <trkpt lat="43.50992" lon="6.79065">
        <ele>207.3</ele>
        <time>2013-05-08T12:07:49Z</time>
      </trkpt>
      <trkpt lat="43.51027" lon="6.79053">
        <ele>200.1</ele>
        <time>2013-05-08T12:08:02Z</time>
      </trkpt>
      <trkpt lat="43.51057" lon="6.7908">
        <ele>186.2</ele>
        <time>2013-05-08T12:08:40Z</time>
      </trkpt>
      <trkpt lat="43.51054" lon="6.79127">
        <ele>178.9</ele>
        <time>2013-05-08T12:08:59Z</time>
      </trkpt>
      <trkpt lat="43.51084" lon="6.79138">
        <ele>173.2</ele>
        <time>2013-05-08T12:09:17Z</time>
      </trkpt>
      <trkpt lat="43.5111" lon="6.79102">
        <ele>169.8</ele>
        <time>2013-05-08T12:09:29Z</time>
      </trkpt>
      <trkpt lat="43.51143" lon="6.79089">
        <ele>165.5</ele>
        <time>2013-05-08T12:09:40Z</time>
      </trkpt>
      <trkpt lat="43.51182" lon="6.79071">
        <ele>166</ele>
        <time>2013-05-08T12:09:51Z</time>
      </trkpt>
      <trkpt lat="43.51219" lon="6.79056">
        <ele>166.9</ele>
        <time>2013-05-08T12:10:06Z</time>
      </trkpt>
      <trkpt lat="43.51245" lon="6.7905">
        <ele>166.9</ele>
        <time>2013-05-08T12:10:24Z</time>
      </trkpt>
      <trkpt lat="43.5127" lon="6.79084">
        <ele>166.4</ele>
        <time>2013-05-08T12:11:00Z</time>
      </trkpt>
      <trkpt lat="43.51303" lon="6.79115">
        <ele>166.9</ele>
        <time>2013-05-08T12:11:17Z</time>
      </trkpt>
      <trkpt lat="43.5134" lon="6.79138">
        <ele>168.4</ele>
        <time>2013-05-08T12:11:31Z</time>
      </trkpt>
      <trkpt lat="43.51374" lon="6.79168">
        <ele>168.4</ele>
        <time>2013-05-08T12:11:44Z</time>
      </trkpt>
      <trkpt lat="43.51404" lon="6.79202">
        <ele>168.8</ele>
        <time>2013-05-08T12:11:55Z</time>
      </trkpt>
      <trkpt lat="43.51424" lon="6.79214">
        <ele>169.3</ele>
        <time>2013-05-08T12:12:01Z</time>
      </trkpt>
      <trkpt lat="43.51464" lon="6.7923">
        <ele>167.9</ele>
        <time>2013-05-08T12:12:11Z</time>
      </trkpt>
      <trkpt lat="43.51505" lon="6.79237">
        <ele>168.4</ele>
        <time>2013-05-08T12:12:22Z</time>
      </trkpt>
      <trkpt lat="43.51556" lon="6.79223">
        <ele>167.4</ele>
        <time>2013-05-08T12:12:35Z</time>
      </trkpt>
      <trkpt lat="43.51573" lon="6.79244">
        <ele>169.3</ele>
        <time>2013-05-08T12:12:47Z</time>
      </trkpt>
      <trkpt lat="43.51551" lon="6.7929">
        <ele>173.2</ele>
        <time>2013-05-08T12:19:11Z</time>
      </trkpt>
      <trkpt lat="43.51542" lon="6.79338">
        <ele>169.8</ele>
        <time>2013-05-08T12:19:21Z</time>
      </trkpt>
      <trkpt lat="43.51526" lon="6.79388">
        <ele>170.3</ele>
        <time>2013-05-08T12:19:31Z</time>
      </trkpt>
      <trkpt lat="43.51477" lon="6.79365">
        <ele>173.7</ele>
        <time>2013-05-08T12:19:50Z</time>
      </trkpt>
      <trkpt lat="43.51454" lon="6.79321">
        <ele>174.6</ele>
        <time>2013-05-08T12:20:03Z</time>
      </trkpt>
      <trkpt lat="43.51421" lon="6.79288">
        <ele>169.8</ele>
        <time>2013-05-08T12:20:12Z</time>
      </trkpt>
      <trkpt lat="43.51368" lon="6.79269">
        <ele>168.8</ele>
        <time>2013-05-08T12:20:22Z</time>
      </trkpt>
      <trkpt lat="43.51333" lon="6.79249">
        <ele>169.3</ele>
        <time>2013-05-08T12:20:30Z</time>
      </trkpt>
      <trkpt lat="43.51294" lon="6.79227">
        <ele>169.8</ele>
        <time>2013-05-08T12:20:40Z</time>
      </trkpt>
      <trkpt lat="43.51259" lon="6.79245">
        <ele>169.8</ele>
        <time>2013-05-08T12:20:50Z</time>
      </trkpt>
      <trkpt lat="43.51237" lon="6.79295">
        <ele>168.8</ele>
        <time>2013-05-08T12:21:00Z</time>
      </trkpt>
      <trkpt lat="43.51228" lon="6.79353">
        <ele>168.8</ele>
        <time>2013-05-08T12:21:10Z</time>
      </trkpt>
      <trkpt lat="43.51232" lon="6.79412">
        <ele>169.3</ele>
        <time>2013-05-08T12:21:20Z</time>
      </trkpt>
      <trkpt lat="43.51245" lon="6.79462">
        <ele>169.8</ele>
        <time>2013-05-08T12:21:30Z</time>
      </trkpt>
      <trkpt lat="43.51241" lon="6.79494">
        <ele>169.3</ele>
        <time>2013-05-08T12:21:41Z</time>
      </trkpt>
      <trkpt lat="43.51211" lon="6.79521">
        <ele>169.8</ele>
        <time>2013-05-08T12:21:51Z</time>
      </trkpt>
      <trkpt lat="43.5121" lon="6.79572">
        <ele>170.8</ele>
        <time>2013-05-08T12:22:03Z</time>
      </trkpt>
      <trkpt lat="43.51216" lon="6.79625">
        <ele>170.3</ele>
        <time>2013-05-08T12:22:13Z</time>
      </trkpt>
      <trkpt lat="43.51182" lon="6.79632">
        <ele>173.2</ele>
        <time>2013-05-08T12:22:30Z</time>
      </trkpt>
      <trkpt lat="43.51157" lon="6.7967">
        <ele>170.8</ele>
        <time>2013-05-08T12:22:39Z</time>
      </trkpt>
      <trkpt lat="43.51146" lon="6.79722">
        <ele>170.3</ele>
        <time>2013-05-08T12:22:47Z</time>
      </trkpt>
      <trkpt lat="43.51123" lon="6.7971">
        <ele>171.3</ele>
        <time>2013-05-08T12:22:58Z</time>
      </trkpt>
      <trkpt lat="43.51133" lon="6.79776">
        <ele>177.5</ele>
        <time>2013-05-08T12:23:38Z</time>
      </trkpt>
      <trkpt lat="43.51127" lon="6.79828">
        <ele>180.4</ele>
        <time>2013-05-08T12:24:00Z</time>
      </trkpt>
      <trkpt lat="43.51114" lon="6.79878">
        <ele>183.3</ele>
        <time>2013-05-08T12:24:21Z</time>
      </trkpt>
      <trkpt lat="43.51088" lon="6.79912">
        <ele>183.3</ele>
        <time>2013-05-08T12:24:35Z</time>
      </trkpt>
      <trkpt lat="43.51061" lon="6.79944">
        <ele>186.6</ele>
        <time>2013-05-08T12:24:52Z</time>
      </trkpt>
      <trkpt lat="43.51075" lon="6.79989">
        <ele>191</ele>
        <time>2013-05-08T12:25:14Z</time>
      </trkpt>
      <trkpt lat="43.51087" lon="6.8006">
        <ele>198.6</ele>
        <time>2013-05-08T12:25:54Z</time>
      </trkpt>
      <trkpt lat="43.51066" lon="6.80128">
        <ele>205.9</ele>
        <time>2013-05-08T12:26:37Z</time>
      </trkpt>
      <trkpt lat="43.51062" lon="6.80181">
        <ele>211.1</ele>
        <time>2013-05-08T12:27:08Z</time>
      </trkpt>
      <trkpt lat="43.51075" lon="6.80254">
        <ele>217.9</ele>
        <time>2013-05-08T12:27:51Z</time>
      </trkpt>
      <trkpt lat="43.51092" lon="6.80298">
        <ele>223.2</ele>
        <time>2013-05-08T12:28:20Z</time>
      </trkpt>
      <trkpt lat="43.51082" lon="6.80343">
        <ele>228.9</ele>
        <time>2013-05-08T12:28:52Z</time>
      </trkpt>
      <trkpt lat="43.51106" lon="6.80373">
        <ele>233.7</ele>
        <time>2013-05-08T12:29:19Z</time>
      </trkpt>
      <trkpt lat="43.51138" lon="6.80401">
        <ele>237.6</ele>
        <time>2013-05-08T12:29:45Z</time>
      </trkpt>
      <trkpt lat="43.51164" lon="6.8044">
        <ele>242.4</ele>
        <time>2013-05-08T12:30:11Z</time>
      </trkpt>
      <trkpt lat="43.51185" lon="6.80488">
        <ele>245.8</ele>
        <time>2013-05-08T12:30:37Z</time>
      </trkpt>
      <trkpt lat="43.51162" lon="6.80498">
        <ele>249.1</ele>
        <time>2013-05-08T12:31:01Z</time>
      </trkpt>
      <trkpt lat="43.51145" lon="6.80531">
        <ele>253</ele>
        <time>2013-05-08T12:31:25Z</time>
      </trkpt>
      <trkpt lat="43.5111" lon="6.80565">
        <ele>258.7</ele>
        <time>2013-05-08T12:32:02Z</time>
      </trkpt>
      <trkpt lat="43.5109" lon="6.80604">
        <ele>263.1</ele>
        <time>2013-05-08T12:32:27Z</time>
      </trkpt>
      <trkpt lat="43.51095" lon="6.80653">
        <ele>266.4</ele>
        <time>2013-05-08T12:32:53Z</time>
      </trkpt>
      <trkpt lat="43.51114" lon="6.80696">
        <ele>271.2</ele>
        <time>2013-05-08T12:33:21Z</time>
      </trkpt>
      <trkpt lat="43.51163" lon="6.80701">
        <ele>277</ele>
        <time>2013-05-08T12:34:00Z</time>
      </trkpt>
      <trkpt lat="43.51194" lon="6.8072">
        <ele>281.3</ele>
        <time>2013-05-08T12:34:26Z</time>
      </trkpt>
      <trkpt lat="43.5122" lon="6.80756">
        <ele>285.6</ele>
        <time>2013-05-08T12:34:52Z</time>
      </trkpt>
      <trkpt lat="43.51247" lon="6.80792">
        <ele>289.5</ele>
        <time>2013-05-08T12:35:18Z</time>
      </trkpt>
      <trkpt lat="43.51289" lon="6.80836">
        <ele>297.7</ele>
        <time>2013-05-08T12:36:02Z</time>
      </trkpt>
      <trkpt lat="43.51295" lon="6.80811">
        <ele>299.6</ele>
        <time>2013-05-08T12:36:43Z</time>
      </trkpt>
      <trkpt lat="43.51298" lon="6.80763">
        <ele>299.6</ele>
        <time>2013-05-08T12:38:36Z</time>
      </trkpt>
      <trkpt lat="43.51314" lon="6.80714">
        <ele>301</ele>
        <time>2013-05-08T12:38:48Z</time>
      </trkpt>
      <trkpt lat="43.51338" lon="6.80671">
        <ele>302.5</ele>
        <time>2013-05-08T12:39:03Z</time>
      </trkpt>
      <trkpt lat="43.51364" lon="6.80631">
        <ele>299.1</ele>
        <time>2013-05-08T12:39:13Z</time>
      </trkpt>
      <trkpt lat="43.51396" lon="6.80598">
        <ele>299.1</ele>
        <time>2013-05-08T12:39:21Z</time>
      </trkpt>
      <trkpt lat="43.51434" lon="6.80579">
        <ele>300.5</ele>
        <time>2013-05-08T12:39:31Z</time>
      </trkpt>
      <trkpt lat="43.51473" lon="6.80569">
        <ele>298.6</ele>
        <time>2013-05-08T12:39:39Z</time>
      </trkpt>
      <trkpt lat="43.51495" lon="6.80562">
        <ele>298.1</ele>
        <time>2013-05-08T12:39:43Z</time>
      </trkpt>
      <trkpt lat="43.5154" lon="6.80565">
        <ele>294.8</ele>
        <time>2013-05-08T12:39:53Z</time>
      </trkpt>
      <trkpt lat="43.51579" lon="6.80552">
        <ele>292.4</ele>
        <time>2013-05-08T12:39:59Z</time>
      </trkpt>
      <trkpt lat="43.51607" lon="6.80487">
        <ele>290.5</ele>
        <time>2013-05-08T12:40:08Z</time>
      </trkpt>
      <trkpt lat="43.51632" lon="6.8044">
        <ele>290.5</ele>
        <time>2013-05-08T12:40:15Z</time>
      </trkpt>
      <trkpt lat="43.51649" lon="6.80419">
        <ele>289</ele>
        <time>2013-05-08T12:40:19Z</time>
      </trkpt>
      <trkpt lat="43.51682" lon="6.80396">
        <ele>287.6</ele>
        <time>2013-05-08T12:40:25Z</time>
      </trkpt>
      <trkpt lat="43.51707" lon="6.80354">
        <ele>285.6</ele>
        <time>2013-05-08T12:40:31Z</time>
      </trkpt>
      <trkpt lat="43.51743" lon="6.80349">
        <ele>283.7</ele>
        <time>2013-05-08T12:40:38Z</time>
      </trkpt>
      <trkpt lat="43.51761" lon="6.80311">
        <ele>281.8</ele>
        <time>2013-05-08T12:40:44Z</time>
      </trkpt>
      <trkpt lat="43.51773" lon="6.80255">
        <ele>278.9</ele>
        <time>2013-05-08T12:40:50Z</time>
      </trkpt>
      <trkpt lat="43.51776" lon="6.80197">
        <ele>276</ele>
        <time>2013-05-08T12:40:56Z</time>
      </trkpt>
      <trkpt lat="43.51792" lon="6.80144">
        <ele>275.1</ele>
        <time>2013-05-08T12:41:02Z</time>
      </trkpt>
      <trkpt lat="43.51817" lon="6.80099">
        <ele>274.1</ele>
        <time>2013-05-08T12:41:08Z</time>
      </trkpt>
      <trkpt lat="43.51844" lon="6.80053">
        <ele>271.7</ele>
        <time>2013-05-08T12:41:14Z</time>
      </trkpt>
      <trkpt lat="43.5188" lon="6.80021">
        <ele>269.3</ele>
        <time>2013-05-08T12:41:20Z</time>
      </trkpt>
      <trkpt lat="43.51909" lon="6.79982">
        <ele>265.9</ele>
        <time>2013-05-08T12:41:26Z</time>
      </trkpt>
      <trkpt lat="43.51934" lon="6.79933">
        <ele>263.5</ele>
        <time>2013-05-08T12:41:32Z</time>
      </trkpt>
      <trkpt lat="43.51939" lon="6.79902">
        <ele>261.6</ele>
        <time>2013-05-08T12:41:35Z</time>
      </trkpt>
      <trkpt lat="43.51941" lon="6.79868">
        <ele>259.7</ele>
        <time>2013-05-08T12:41:38Z</time>
      </trkpt>
      <trkpt lat="43.51932" lon="6.79817">
        <ele>260.2</ele>
        <time>2013-05-08T12:41:45Z</time>
      </trkpt>
      <trkpt lat="43.51962" lon="6.79842">
        <ele>259.7</ele>
        <time>2013-05-08T12:42:09Z</time>
      </trkpt>
      <trkpt lat="43.52001" lon="6.7985">
        <ele>256.8</ele>
        <time>2013-05-08T12:42:18Z</time>
      </trkpt>
      <trkpt lat="43.5204" lon="6.79875">
        <ele>255.4</ele>
        <time>2013-05-08T12:42:26Z</time>
      </trkpt>
      <trkpt lat="43.52066" lon="6.7992">
        <ele>249.6</ele>
        <time>2013-05-08T12:42:36Z</time>
      </trkpt>
      <trkpt lat="43.52086" lon="6.79972">
        <ele>245.3</ele>
        <time>2013-05-08T12:42:44Z</time>
      </trkpt>
      <trkpt lat="43.52092" lon="6.80034">
        <ele>236.6</ele>
        <time>2013-05-08T12:42:50Z</time>
      </trkpt>
      <trkpt lat="43.52092" lon="6.80117">
        <ele>234.7</ele>
        <time>2013-05-08T12:43:00Z</time>
      </trkpt>
      <trkpt lat="43.52081" lon="6.80173">
        <ele>236.1</ele>
        <time>2013-05-08T12:43:09Z</time>
      </trkpt>
      <trkpt lat="43.52076" lon="6.80226">
        <ele>238.5</ele>
        <time>2013-05-08T12:43:23Z</time>
      </trkpt>
      <trkpt lat="43.52086" lon="6.8025">
        <ele>244.3</ele>
        <time>2013-05-08T12:43:58Z</time>
      </trkpt>
      <trkpt lat="43.52103" lon="6.80206">
        <ele>250.1</ele>
        <time>2013-05-08T12:44:27Z</time>
      </trkpt>
      <trkpt lat="43.52128" lon="6.80166">
        <ele>255.4</ele>
        <time>2013-05-08T12:44:59Z</time>
      </trkpt>
      <trkpt lat="43.5216" lon="6.80138">
        <ele>258.7</ele>
        <time>2013-05-08T12:45:26Z</time>
      </trkpt>
      <trkpt lat="43.52179" lon="6.80092">
        <ele>262.1</ele>
        <time>2013-05-08T12:45:50Z</time>
      </trkpt>
      <trkpt lat="43.52196" lon="6.80048">
        <ele>265</ele>
        <time>2013-05-08T12:46:12Z</time>
      </trkpt>
      <trkpt lat="43.52222" lon="6.8001">
        <ele>266.9</ele>
        <time>2013-05-08T12:46:33Z</time>
      </trkpt>
      <trkpt lat="43.52227" lon="6.79962">
        <ele>269.3</ele>
        <time>2013-05-08T12:46:53Z</time>
      </trkpt>
      <trkpt lat="43.52251" lon="6.79927">
        <ele>273.6</ele>
        <time>2013-05-08T12:47:14Z</time>
      </trkpt>
      <trkpt lat="43.52268" lon="6.79969">
        <ele>277</ele>
        <time>2013-05-08T12:47:36Z</time>
      </trkpt>
      <trkpt lat="43.52254" lon="6.80038">
        <ele>281.8</ele>
        <time>2013-05-08T12:48:09Z</time>
      </trkpt>
      <trkpt lat="43.52251" lon="6.80113">
        <ele>290.9</ele>
        <time>2013-05-08T12:48:54Z</time>
      </trkpt>
      <trkpt lat="43.52246" lon="6.80164">
        <ele>295.3</ele>
        <time>2013-05-08T12:49:22Z</time>
      </trkpt>
      <trkpt lat="43.52233" lon="6.80211">
        <ele>301</ele>
        <time>2013-05-08T12:49:52Z</time>
      </trkpt>
      <trkpt lat="43.52221" lon="6.80255">
        <ele>307.3</ele>
        <time>2013-05-08T12:50:22Z</time>
      </trkpt>
      <trkpt lat="43.52237" lon="6.80308">
        <ele>303.4</ele>
        <time>2013-05-08T12:50:36Z</time>
      </trkpt>
      <trkpt lat="43.52261" lon="6.80356">
        <ele>304.4</ele>
        <time>2013-05-08T12:50:45Z</time>
      </trkpt>
      <trkpt lat="43.52289" lon="6.80392">
        <ele>305.4</ele>
        <time>2013-05-08T12:50:56Z</time>
      </trkpt>
      <trkpt lat="43.52311" lon="6.80433">
        <ele>308.7</ele>
        <time>2013-05-08T12:51:12Z</time>
      </trkpt>
      <trkpt lat="43.52336" lon="6.80476">
        <ele>311.1</ele>
        <time>2013-05-08T12:51:27Z</time>
      </trkpt>
      <trkpt lat="43.52363" lon="6.80512">
        <ele>313.5</ele>
        <time>2013-05-08T12:51:43Z</time>
      </trkpt>
      <trkpt lat="43.52387" lon="6.80551">
        <ele>316.4</ele>
        <time>2013-05-08T12:51:59Z</time>
      </trkpt>
      <trkpt lat="43.52426" lon="6.80603">
        <ele>322.7</ele>
        <time>2013-05-08T12:52:33Z</time>
      </trkpt>
      <trkpt lat="43.52453" lon="6.80642">
        <ele>323.6</ele>
        <time>2013-05-08T12:52:50Z</time>
      </trkpt>
      <trkpt lat="43.52474" lon="6.8069">
        <ele>324.1</ele>
        <time>2013-05-08T12:53:02Z</time>
      </trkpt>
      <trkpt lat="43.52491" lon="6.80738">
        <ele>326.5</ele>
        <time>2013-05-08T12:53:17Z</time>
      </trkpt>
      <trkpt lat="43.52509" lon="6.80779">
        <ele>330.8</ele>
        <time>2013-05-08T12:53:41Z</time>
      </trkpt>
      <trkpt lat="43.52529" lon="6.80822">
        <ele>335.6</ele>
        <time>2013-05-08T12:54:05Z</time>
      </trkpt>
      <trkpt lat="43.52549" lon="6.80865">
        <ele>338.5</ele>
        <time>2013-05-08T12:54:27Z</time>
      </trkpt>
      <trkpt lat="43.52555" lon="6.8091">
        <ele>342.8</ele>
        <time>2013-05-08T12:54:51Z</time>
      </trkpt>
      <trkpt lat="43.52576" lon="6.80895">
        <ele>345.7</ele>
        <time>2013-05-08T12:55:12Z</time>
      </trkpt>
      <trkpt lat="43.52597" lon="6.80851">
        <ele>347.2</ele>
        <time>2013-05-08T12:55:28Z</time>
      </trkpt>
      <trkpt lat="43.52634" lon="6.80886">
        <ele>349.1</ele>
        <time>2013-05-08T12:55:50Z</time>
      </trkpt>
      <trkpt lat="43.52672" lon="6.80911">
        <ele>351.5</ele>
        <time>2013-05-08T12:56:12Z</time>
      </trkpt>
      <trkpt lat="43.527" lon="6.80868">
        <ele>347.5</ele>
        <time>2013-05-08T13:25:18Z</time>
      </trkpt>
      <trkpt lat="43.5272" lon="6.80825">
        <ele>347.1</ele>
        <time>2013-05-08T11:25:06Z</time>
      </trkpt>
      <trkpt lat="43.52726" lon="6.80833">
        <ele>347.1</ele>
        <time>2013-05-08T13:25:26Z</time>
      </trkpt>
      <trkpt lat="43.52735" lon="6.80867">
        <ele>347.8</ele>
        <time>2013-05-08T03:48:15Z</time>
      </trkpt>
      <trkpt lat="43.52745" lon="6.80882">
        <ele>356.8</ele>
        <time>2013-05-08T13:25:50Z</time>
      </trkpt>
      <trkpt lat="43.52766" lon="6.80926">
        <ele>356.3</ele>
        <time>2013-05-08T13:26:04Z</time>
      </trkpt>
      <trkpt lat="43.52798" lon="6.80945">
        <ele>353.4</ele>
        <time>2013-05-08T13:27:27Z</time>
      </trkpt>
      <trkpt lat="43.52851" lon="6.80923">
        <ele>346.2</ele>
        <time>2013-05-08T13:27:48Z</time>
      </trkpt>
      <trkpt lat="43.52873" lon="6.80897">
        <ele>339.6</ele>
        <time>2013-05-08T13:28:52Z</time>
      </trkpt>
      <trkpt lat="43.52882" lon="6.80844">
        <ele>344.8</ele>
        <time>2013-05-08T13:30:36Z</time>
      </trkpt>
      <trkpt lat="43.52888" lon="6.80788">
        <ele>343.3</ele>
        <time>2013-05-08T13:30:46Z</time>
      </trkpt>
      <trkpt lat="43.52897" lon="6.80758">
        <ele>342.8</ele>
        <time>2013-05-08T13:30:51Z</time>
      </trkpt>
      <trkpt lat="43.52916" lon="6.80712">
        <ele>342.4</ele>
        <time>2013-05-08T13:30:59Z</time>
      </trkpt>
      <trkpt lat="43.52947" lon="6.80677">
        <ele>342.4</ele>
        <time>2013-05-08T13:31:08Z</time>
      </trkpt>
      <trkpt lat="43.52994" lon="6.80646">
        <ele>343.3</ele>
        <time>2013-05-08T13:31:31Z</time>
      </trkpt>
      <trkpt lat="43.53029" lon="6.80642">
        <ele>336.1</ele>
        <time>2013-05-08T13:31:48Z</time>
      </trkpt>
      <trkpt lat="43.53069" lon="6.80655">
        <ele>334.7</ele>
        <time>2013-05-08T13:31:59Z</time>
      </trkpt>
      <trkpt lat="43.53103" lon="6.8062">
        <ele>331.3</ele>
        <time>2013-05-08T13:32:07Z</time>
      </trkpt>
      <trkpt lat="43.5311" lon="6.80569">
        <ele>331.3</ele>
        <time>2013-05-08T13:32:13Z</time>
      </trkpt>
      <trkpt lat="43.53106" lon="6.80517">
        <ele>330.4</ele>
        <time>2013-05-08T13:32:19Z</time>
      </trkpt>
      <trkpt lat="43.53107" lon="6.80465">
        <ele>329.4</ele>
        <time>2013-05-08T13:32:25Z</time>
      </trkpt>
      <trkpt lat="43.53129" lon="6.80428">
        <ele>329.4</ele>
        <time>2013-05-08T13:32:32Z</time>
      </trkpt>
      <trkpt lat="43.53166" lon="6.80448">
        <ele>328.4</ele>
        <time>2013-05-08T13:32:40Z</time>
      </trkpt>
      <trkpt lat="43.53185" lon="6.80465">
        <ele>327.5</ele>
        <time>2013-05-08T13:32:44Z</time>
      </trkpt>
      <trkpt lat="43.53207" lon="6.80475">
        <ele>328.4</ele>
        <time>2013-05-08T13:32:48Z</time>
      </trkpt>
      <trkpt lat="43.53242" lon="6.80472">
        <ele>326</ele>
        <time>2013-05-08T13:32:54Z</time>
      </trkpt>
      <trkpt lat="43.53259" lon="6.80419">
        <ele>325.5</ele>
        <time>2013-05-08T13:33:02Z</time>
      </trkpt>
      <trkpt lat="43.5327" lon="6.80359">
        <ele>321.7</ele>
        <time>2013-05-08T13:33:10Z</time>
      </trkpt>
      <trkpt lat="43.53256" lon="6.80311">
        <ele>319.8</ele>
        <time>2013-05-08T13:33:16Z</time>
      </trkpt>
      <trkpt lat="43.53238" lon="6.80267">
        <ele>318.8</ele>
        <time>2013-05-08T13:33:22Z</time>
      </trkpt>
      <trkpt lat="43.53253" lon="6.80235">
        <ele>316.9</ele>
        <time>2013-05-08T13:33:30Z</time>
      </trkpt>
      <trkpt lat="43.53273" lon="6.80219">
        <ele>314</ele>
        <time>2013-05-08T13:33:34Z</time>
      </trkpt>
      <trkpt lat="43.53291" lon="6.80169">
        <ele>311.1</ele>
        <time>2013-05-08T13:33:40Z</time>
      </trkpt>
      <trkpt lat="43.53303" lon="6.80115">
        <ele>309.7</ele>
        <time>2013-05-08T13:33:46Z</time>
      </trkpt>
      <trkpt lat="43.53322" lon="6.80069">
        <ele>305.8</ele>
        <time>2013-05-08T13:33:52Z</time>
      </trkpt>
      <trkpt lat="43.53346" lon="6.80025">
        <ele>304.4</ele>
        <time>2013-05-08T13:33:58Z</time>
      </trkpt>
      <trkpt lat="43.53371" lon="6.80039">
        <ele>302.5</ele>
        <time>2013-05-08T13:34:49Z</time>
      </trkpt>
      <trkpt lat="43.53369" lon="6.8007">
        <ele>302</ele>
        <time>2013-05-08T13:34:54Z</time>
      </trkpt>
      <trkpt lat="43.53353" lon="6.80119">
        <ele>299.6</ele>
        <time>2013-05-08T13:35:01Z</time>
      </trkpt>
      <trkpt lat="43.53349" lon="6.80171">
        <ele>296.2</ele>
        <time>2013-05-08T13:35:07Z</time>
      </trkpt>
      <trkpt lat="43.5334" lon="6.80221">
        <ele>294.8</ele>
        <time>2013-05-08T13:35:13Z</time>
      </trkpt>
      <trkpt lat="43.53332" lon="6.80276">
        <ele>293.8</ele>
        <time>2013-05-08T13:35:20Z</time>
      </trkpt>
      <trkpt lat="43.53322" lon="6.80306">
        <ele>293.8</ele>
        <time>2013-05-08T13:35:24Z</time>
      </trkpt>
      <trkpt lat="43.5333" lon="6.80361">
        <ele>290.9</ele>
        <time>2013-05-08T13:35:31Z</time>
      </trkpt>
      <trkpt lat="43.5333" lon="6.80414">
        <ele>288.5</ele>
        <time>2013-05-08T13:35:37Z</time>
      </trkpt>
      <trkpt lat="43.53336" lon="6.80464">
        <ele>287.6</ele>
        <time>2013-05-08T13:35:43Z</time>
      </trkpt>
      <trkpt lat="43.53359" lon="6.80472">
        <ele>285.6</ele>
        <time>2013-05-08T13:35:47Z</time>
      </trkpt>
      <trkpt lat="43.53381" lon="6.80464">
        <ele>284.2</ele>
        <time>2013-05-08T13:35:51Z</time>
      </trkpt>
      <trkpt lat="43.53417" lon="6.80438">
        <ele>282.3</ele>
        <time>2013-05-08T13:35:57Z</time>
      </trkpt>
      <trkpt lat="43.53452" lon="6.80412">
        <ele>279.4</ele>
        <time>2013-05-08T13:36:03Z</time>
      </trkpt>
      <trkpt lat="43.53485" lon="6.80362">
        <ele>276.5</ele>
        <time>2013-05-08T13:36:16Z</time>
      </trkpt>
      <trkpt lat="43.53517" lon="6.80403">
        <ele>272.2</ele>
        <time>2013-05-08T13:36:25Z</time>
      </trkpt>
      <trkpt lat="43.53532" lon="6.80427">
        <ele>272.2</ele>
        <time>2013-05-08T13:36:29Z</time>
      </trkpt>
      <trkpt lat="43.53557" lon="6.80474">
        <ele>273.6</ele>
        <time>2013-05-08T13:36:38Z</time>
      </trkpt>
      <trkpt lat="43.53593" lon="6.80483">
        <ele>275.6</ele>
        <time>2013-05-08T13:36:50Z</time>
      </trkpt>
      <trkpt lat="43.53612" lon="6.80436">
        <ele>278.4</ele>
        <time>2013-05-08T13:37:06Z</time>
      </trkpt>
      <trkpt lat="43.53649" lon="6.80417">
        <ele>278</ele>
        <time>2013-05-08T13:37:19Z</time>
      </trkpt>
      <trkpt lat="43.53689" lon="6.80411">
        <ele>276.5</ele>
        <time>2013-05-08T13:37:32Z</time>
      </trkpt>
      <trkpt lat="43.53747" lon="6.80401">
        <ele>275.6</ele>
        <time>2013-05-08T13:38:05Z</time>
      </trkpt>
      <trkpt lat="43.53781" lon="6.80417">
        <ele>272.7</ele>
        <time>2013-05-08T13:38:23Z</time>
      </trkpt>
      <trkpt lat="43.53817" lon="6.80438">
        <ele>265.9</ele>
        <time>2013-05-08T13:38:35Z</time>
      </trkpt>
      <trkpt lat="43.53845" lon="6.80478">
        <ele>263.5</ele>
        <time>2013-05-08T13:38:47Z</time>
      </trkpt>
      <trkpt lat="43.53887" lon="6.8051">
        <ele>259.7</ele>
        <time>2013-05-08T13:39:16Z</time>
      </trkpt>
      <trkpt lat="43.53926" lon="6.80504">
        <ele>255.4</ele>
        <time>2013-05-08T13:39:28Z</time>
      </trkpt>
      <trkpt lat="43.53962" lon="6.80493">
        <ele>253.4</ele>
        <time>2013-05-08T13:39:37Z</time>
      </trkpt>
      <trkpt lat="43.53998" lon="6.80476">
        <ele>246.7</ele>
        <time>2013-05-08T13:39:56Z</time>
      </trkpt>
      <trkpt lat="43.54024" lon="6.80435">
        <ele>245.3</ele>
        <time>2013-05-08T13:40:10Z</time>
      </trkpt>
      <trkpt lat="43.54044" lon="6.80388">
        <ele>240</ele>
        <time>2013-05-08T13:40:24Z</time>
      </trkpt>
      <trkpt lat="43.54077" lon="6.80365">
        <ele>236.1</ele>
        <time>2013-05-08T13:40:39Z</time>
      </trkpt>
      <trkpt lat="43.54114" lon="6.80369">
        <ele>230.9</ele>
        <time>2013-05-08T13:40:58Z</time>
      </trkpt>
      <trkpt lat="43.54145" lon="6.80382">
        <ele>223.2</ele>
        <time>2013-05-08T13:41:23Z</time>
      </trkpt>
      <trkpt lat="43.54153" lon="6.80447">
        <ele>203.5</ele>
        <time>2013-05-08T13:42:37Z</time>
      </trkpt>
      <trkpt lat="43.54158" lon="6.80498">
        <ele>197.7</ele>
        <time>2013-05-08T13:43:02Z</time>
      </trkpt>
      <trkpt lat="43.54166" lon="6.80553">
        <ele>193.8</ele>
        <time>2013-05-08T13:43:12Z</time>
      </trkpt>
      <trkpt lat="43.54196" lon="6.80595">
        <ele>191</ele>
        <time>2013-05-08T13:43:20Z</time>
      </trkpt>
      <trkpt lat="43.54219" lon="6.80597">
        <ele>188.6</ele>
        <time>2013-05-08T13:43:24Z</time>
      </trkpt>
      <trkpt lat="43.5426" lon="6.80606">
        <ele>184.7</ele>
        <time>2013-05-08T13:43:30Z</time>
      </trkpt>
      <trkpt lat="43.54283" lon="6.80648">
        <ele>182.8</ele>
        <time>2013-05-08T13:43:36Z</time>
      </trkpt>
      <trkpt lat="43.54285" lon="6.80682">
        <ele>183.3</ele>
        <time>2013-05-08T13:44:09Z</time>
      </trkpt>
      <trkpt lat="43.54246" lon="6.80684">
        <ele>180.9</ele>
        <time>2013-05-08T13:44:21Z</time>
      </trkpt>
      <trkpt lat="43.54215" lon="6.80707">
        <ele>179.4</ele>
        <time>2013-05-08T13:44:37Z</time>
      </trkpt>
      <trkpt lat="43.5419" lon="6.80745">
        <ele>178.9</ele>
        <time>2013-05-08T13:45:05Z</time>
      </trkpt>
      <trkpt lat="43.54183" lon="6.80782">
        <ele>177</ele>
        <time>2013-05-08T13:45:23Z</time>
      </trkpt>
      <trkpt lat="43.54215" lon="6.80822">
        <ele>176.5</ele>
        <time>2013-05-08T13:45:33Z</time>
      </trkpt>
      <trkpt lat="43.54234" lon="6.80864">
        <ele>172.2</ele>
        <time>2013-05-08T13:45:41Z</time>
      </trkpt>
      <trkpt lat="43.5429" lon="6.80856">
        <ele>173.7</ele>
        <time>2013-05-08T13:45:59Z</time>
      </trkpt>
      <trkpt lat="43.54324" lon="6.8087">
        <ele>170.3</ele>
        <time>2013-05-08T13:46:13Z</time>
      </trkpt>
      <trkpt lat="43.54338" lon="6.80919">
        <ele>166</ele>
        <time>2013-05-08T13:46:25Z</time>
      </trkpt>
      <trkpt lat="43.54378" lon="6.80928">
        <ele>166</ele>
        <time>2013-05-08T13:46:41Z</time>
      </trkpt>
      <trkpt lat="43.54412" lon="6.809">
        <ele>165</ele>
        <time>2013-05-08T13:46:51Z</time>
      </trkpt>
      <trkpt lat="43.54442" lon="6.80868">
        <ele>166.9</ele>
        <time>2013-05-08T13:47:04Z</time>
      </trkpt>
      <trkpt lat="43.54468" lon="6.8083">
        <ele>170.8</ele>
        <time>2013-05-08T13:47:21Z</time>
      </trkpt>
      <trkpt lat="43.54503" lon="6.80815">
        <ele>174.6</ele>
        <time>2013-05-08T13:47:38Z</time>
      </trkpt>
      <trkpt lat="43.54526" lon="6.80773">
        <ele>177.5</ele>
        <time>2013-05-08T13:47:57Z</time>
      </trkpt>
      <trkpt lat="43.54539" lon="6.80722">
        <ele>178</ele>
        <time>2013-05-08T13:48:12Z</time>
      </trkpt>
      <trkpt lat="43.54553" lon="6.80671">
        <ele>176.5</ele>
        <time>2013-05-08T13:48:22Z</time>
      </trkpt>
      <trkpt lat="43.54549" lon="6.80616">
        <ele>175.6</ele>
        <time>2013-05-08T13:48:31Z</time>
      </trkpt>
      <trkpt lat="43.54514" lon="6.8059">
        <ele>176.5</ele>
        <time>2013-05-08T13:48:42Z</time>
      </trkpt>
      <trkpt lat="43.54478" lon="6.80568">
        <ele>177</ele>
        <time>2013-05-08T13:48:54Z</time>
      </trkpt>
      <trkpt lat="43.54442" lon="6.8055">
        <ele>173.7</ele>
        <time>2013-05-08T13:51:20Z</time>
      </trkpt>
      <trkpt lat="43.54425" lon="6.80529">
        <ele>174.1</ele>
        <time>2013-05-08T13:51:25Z</time>
      </trkpt>
      <trkpt lat="43.54433" lon="6.80477">
        <ele>176.5</ele>
        <time>2013-05-08T13:51:42Z</time>
      </trkpt>
      <trkpt lat="43.54424" lon="6.80434">
        <ele>179.9</ele>
        <time>2013-05-08T13:52:11Z</time>
      </trkpt>
      <trkpt lat="43.54412" lon="6.80382">
        <ele>179.9</ele>
        <time>2013-05-08T13:53:11Z</time>
      </trkpt>
      <trkpt lat="43.54412" lon="6.80351">
        <ele>178</ele>
        <time>2013-05-08T13:53:16Z</time>
      </trkpt>
      <trkpt lat="43.54375" lon="6.80337">
        <ele>175.1</ele>
        <time>2013-05-08T13:53:24Z</time>
      </trkpt>
      <trkpt lat="43.54337" lon="6.80324">
        <ele>172.2</ele>
        <time>2013-05-08T13:53:30Z</time>
      </trkpt>
      <trkpt lat="43.54337" lon="6.80284">
        <ele>174.6</ele>
        <time>2013-05-08T13:53:41Z</time>
      </trkpt>
      <trkpt lat="43.54365" lon="6.80247">
        <ele>178.5</ele>
        <time>2013-05-08T13:53:57Z</time>
      </trkpt>
      <trkpt lat="43.54392" lon="6.80205">
        <ele>178.9</ele>
        <time>2013-05-08T13:54:09Z</time>
      </trkpt>
      <trkpt lat="43.54433" lon="6.80207">
        <ele>174.1</ele>
        <time>2013-05-08T13:54:17Z</time>
      </trkpt>
      <trkpt lat="43.54474" lon="6.80218">
        <ele>170.3</ele>
        <time>2013-05-08T13:54:24Z</time>
      </trkpt>
      <trkpt lat="43.54495" lon="6.80179">
        <ele>168.8</ele>
        <time>2013-05-08T13:54:36Z</time>
      </trkpt>
      <trkpt lat="43.54513" lon="6.80133">
        <ele>172.7</ele>
        <time>2013-05-08T13:54:53Z</time>
      </trkpt>
      <trkpt lat="43.54544" lon="6.80102">
        <ele>172.7</ele>
        <time>2013-05-08T13:55:05Z</time>
      </trkpt>
      <trkpt lat="43.54578" lon="6.80078">
        <ele>170.3</ele>
        <time>2013-05-08T13:55:15Z</time>
      </trkpt>
      <trkpt lat="43.54618" lon="6.80068">
        <ele>165.5</ele>
        <time>2013-05-08T13:55:21Z</time>
      </trkpt>
      <trkpt lat="43.54641" lon="6.80062">
        <ele>163.1</ele>
        <time>2013-05-08T13:55:24Z</time>
      </trkpt>
      <trkpt lat="43.54681" lon="6.80048">
        <ele>163.6</ele>
        <time>2013-05-08T13:55:30Z</time>
      </trkpt>
      <trkpt lat="43.54715" lon="6.80022">
        <ele>161.6</ele>
        <time>2013-05-08T13:55:36Z</time>
      </trkpt>
      <trkpt lat="43.54751" lon="6.79998">
        <ele>161.6</ele>
        <time>2013-05-08T13:55:44Z</time>
      </trkpt>
      <trkpt lat="43.54765" lon="6.79947">
        <ele>158.8</ele>
        <time>2013-05-08T13:55:51Z</time>
      </trkpt>
      <trkpt lat="43.54761" lon="6.79889">
        <ele>159.7</ele>
        <time>2013-05-08T13:55:58Z</time>
      </trkpt>
      <trkpt lat="43.54786" lon="6.79865">
        <ele>159.7</ele>
        <time>2013-05-08T13:56:07Z</time>
      </trkpt>
      <trkpt lat="43.54813" lon="6.79833">
        <ele>160.2</ele>
        <time>2013-05-08T13:56:18Z</time>
      </trkpt>
      <trkpt lat="43.54815" lon="6.79775">
        <ele>161.2</ele>
        <time>2013-05-08T13:56:27Z</time>
      </trkpt>
      <trkpt lat="43.548" lon="6.79725">
        <ele>164</ele>
        <time>2013-05-08T13:56:47Z</time>
      </trkpt>
      <trkpt lat="43.54783" lon="6.79674">
        <ele>165</ele>
        <time>2013-05-08T13:57:02Z</time>
      </trkpt>
      <trkpt lat="43.5477" lon="6.79627">
        <ele>168.4</ele>
        <time>2013-05-08T13:57:17Z</time>
      </trkpt>
      <trkpt lat="43.54743" lon="6.79591">
        <ele>171.7</ele>
        <time>2013-05-08T13:57:35Z</time>
      </trkpt>
      <trkpt lat="43.54745" lon="6.79539">
        <ele>174.6</ele>
        <time>2013-05-08T13:57:52Z</time>
      </trkpt>
      <trkpt lat="43.5473" lon="6.79491">
        <ele>174.1</ele>
        <time>2013-05-08T13:58:05Z</time>
      </trkpt>
      <trkpt lat="43.5471" lon="6.79443">
        <ele>174.1</ele>
        <time>2013-05-08T13:58:17Z</time>
      </trkpt>
      <trkpt lat="43.54687" lon="6.79391">
        <ele>170.3</ele>
        <time>2013-05-08T13:58:26Z</time>
      </trkpt>
      <trkpt lat="43.54663" lon="6.79345">
        <ele>165.5</ele>
        <time>2013-05-08T13:58:32Z</time>
      </trkpt>
      <trkpt lat="43.54641" lon="6.79334">
        <ele>162.1</ele>
        <time>2013-05-08T13:58:35Z</time>
      </trkpt>
      <trkpt lat="43.54616" lon="6.79325">
        <ele>158.8</ele>
        <time>2013-05-08T13:58:38Z</time>
      </trkpt>
      <trkpt lat="43.54557" lon="6.7933">
        <ele>151.5</ele>
        <time>2013-05-08T13:58:45Z</time>
      </trkpt>
      <trkpt lat="43.54534" lon="6.79311">
        <ele>146.7</ele>
        <time>2013-05-08T13:58:48Z</time>
      </trkpt>
      <trkpt lat="43.54496" lon="6.79278">
        <ele>141.9</ele>
        <time>2013-05-08T13:58:53Z</time>
      </trkpt>
      <trkpt lat="43.54459" lon="6.79273">
        <ele>137.1</ele>
        <time>2013-05-08T13:58:57Z</time>
      </trkpt>
      <trkpt lat="43.54424" lon="6.79283">
        <ele>135.7</ele>
        <time>2013-05-08T13:59:02Z</time>
      </trkpt>
      <trkpt lat="43.54431" lon="6.79254">
        <ele>137.1</ele>
        <time>2013-05-08T13:59:15Z</time>
      </trkpt>
      <trkpt lat="43.54467" lon="6.79231">
        <ele>139.5</ele>
        <time>2013-05-08T13:59:29Z</time>
      </trkpt>
      <trkpt lat="43.54499" lon="6.79205">
        <ele>139</ele>
        <time>2013-05-08T13:59:40Z</time>
      </trkpt>
      <trkpt lat="43.54527" lon="6.79169">
        <ele>136.6</ele>
        <time>2013-05-08T13:59:48Z</time>
      </trkpt>
      <trkpt lat="43.5456" lon="6.79196">
        <ele>136.2</ele>
        <time>2013-05-08T14:00:00Z</time>
      </trkpt>
      <trkpt lat="43.54583" lon="6.79207">
        <ele>132.8</ele>
        <time>2013-05-08T14:00:04Z</time>
      </trkpt>
      <trkpt lat="43.54605" lon="6.79199">
        <ele>129</ele>
        <time>2013-05-08T14:00:07Z</time>
      </trkpt>
      <trkpt lat="43.54647" lon="6.79192">
        <ele>125.1</ele>
        <time>2013-05-08T14:00:14Z</time>
      </trkpt>
      <trkpt lat="43.54687" lon="6.79177">
        <ele>124.6</ele>
        <time>2013-05-08T14:00:23Z</time>
      </trkpt>
      <trkpt lat="43.54732" lon="6.79185">
        <ele>124.1</ele>
        <time>2013-05-08T14:00:34Z</time>
      </trkpt>
      <trkpt lat="43.54759" lon="6.7914">
        <ele>125.6</ele>
        <time>2013-05-08T14:00:48Z</time>
      </trkpt>
      <trkpt lat="43.54784" lon="6.79101">
        <ele>126.6</ele>
        <time>2013-05-08T14:01:00Z</time>
      </trkpt>
      <trkpt lat="43.54818" lon="6.79077">
        <ele>125.6</ele>
        <time>2013-05-08T14:01:11Z</time>
      </trkpt>
      <trkpt lat="43.54853" lon="6.79049">
        <ele>124.1</ele>
        <time>2013-05-08T14:01:20Z</time>
      </trkpt>
      <trkpt lat="43.54884" lon="6.79015">
        <ele>128</ele>
        <time>2013-05-08T14:01:30Z</time>
      </trkpt>
      <trkpt lat="43.54904" lon="6.78968">
        <ele>127.5</ele>
        <time>2013-05-08T14:01:43Z</time>
      </trkpt>
      <trkpt lat="43.54931" lon="6.78926">
        <ele>124.1</ele>
        <time>2013-05-08T14:01:51Z</time>
      </trkpt>
    </trkseg>
  </trk>
</gpx>